NOAA Web Site Link Tides and Currents Home Page Transparent placeholder image

PORTS® Data Listing: 8452660 Newport, RI

CO-OPS RAW PORTS DATA

************************      PRELIMINARY DATA      ************************** 

     THIS RAW DATA HAS NOT BEEN SUBJECT TO THE NATIONAL OCEAN SERVICE'S        
     QUALITY CONTROL OR QUALITY ASSURANCE PROCEDURES AND DOES NOT MEET         
     THE CRITERIA AND STANDARDS OF OFFICIAL NATIONAL OCEAN SERVICE             
     DATA.  IT IS RELEASED FOR LIMITED PUBLIC USE AS PRELIMINARY DATA TO       
     BE USED ONLY WITH APPROPRIATE CAUTION.                                    

************************      PRELIMINARY DATA      ************************** 


       CD   -   Calendar date
       T    -   Time
       TZ   -   Timezone
       PW   -   Predicted water level (feet above MLLW)
       OW   -   Observed water level (feet above MLLW)
       WS   -   Wind speed (knots)
       WD   -   Wind direction (degrees true)
       WG   -   Wind gust (knots)
       AT   -   Air temperature (degrees farenheit)
       WT   -   Water temperature (degrees farenheit)
       AP   -   Air pressure (millibars)
       SA   -   Salinty (PSU - Practical Salinity Units)
       SG   -   Specific gravity
       RH   -   Relative humidity
       AG   -   Air gap (feet)
       VI   -   Visibility (nautical miles)

       ** NOTE **
       A variable that has its data fields filled with "9"s, indicates that
       data was not collected for that sample period.
       **********


STATION NAME: Newport (8452660)
****************************************************************************************************
    CD       T    TZ    PW     OW    WS   WD   WG    AT    WT    AP    SA    SG     RH    AG   VI
****************************************************************************************************
2019/08/21 05:48 EDT    0.44   0.85    3  154    4  72.9  66.9 1016.4 29.9  1.022 -99.9 -99.99 -9.99
2019/08/21 05:54 EDT    0.46   0.86    4  151    5  72.9  67.1 1016.4 29.9  1.022 -99.9 -99.99 -9.99
2019/08/21 06:00 EDT    0.48   0.93    3  155    5  73.0  67.1 1016.4 29.9  1.022 -99.9 -99.99 -9.99
2019/08/21 06:06 EDT    0.51   0.92    4  152    5  73.2  66.9 1016.3 29.9  1.022 -99.9 -99.99 -9.99
2019/08/21 06:12 EDT    0.54   1.00    3  152    4  73.2  66.9 1016.4 30.0  1.022 -99.9 -99.99 -9.99
2019/08/21 06:18 EDT    0.57   1.02    3  141    4  73.2  67.5 1016.3 29.9  1.022 -99.9 -99.99 -9.99
2019/08/21 06:24 EDT    0.61   1.04    4  138    5  73.2  67.3 1016.2 29.9  1.022 -99.9 -99.99 -9.99
2019/08/21 06:30 EDT    0.64   1.14    4  149    5  73.4  67.5 1016.2 29.9  1.022 -99.9 -99.99 -9.99
2019/08/21 06:36 EDT    0.68   1.11    4  157    5  73.8  67.5 1016.3 29.9  1.022 -99.9 -99.99 -9.99
2019/08/21 06:42 EDT    0.72   1.19    4  164    4  74.3  67.3 1016.3 29.9  1.022 -99.9 -99.99 -9.99
2019/08/21 06:48 EDT    0.76   1.23    4  175    5  74.7  67.1 1016.3 29.9  1.022 -99.9 -99.99 -9.99
2019/08/21 06:54 EDT    0.80   1.26    4  169    6  75.0  67.1 1016.3 29.9  1.022 -99.9 -99.99 -9.99
2019/08/21 07:00 EDT    0.85   1.34    6  167    7  75.2  67.3 1016.3 29.9  1.022 -99.9 -99.99 -9.99
2019/08/21 07:06 EDT    0.89   1.33    4  149    6  75.6  67.1 1016.2 29.9  1.022 -99.9 -99.99 -9.99
2019/08/21 07:12 EDT    0.94   1.42    6  147    7  75.4  66.9 1016.2 29.9  1.022 -99.9 -99.99 -9.99
2019/08/21 07:18 EDT    0.98   1.44    5  145    8  75.4  67.1 1016.2 29.9  1.022 -99.9 -99.99 -9.99
2019/08/21 07:24 EDT    1.03   1.49    6  137    7  75.2  66.9 1016.2 30.0  1.022 -99.9 -99.99 -9.99
2019/08/21 07:30 EDT    1.08   1.60    6  138    8  75.4  66.7 1016.2 30.0  1.022 -99.9 -99.99 -9.99
2019/08/21 07:36 EDT    1.12   1.58    7  146    9  75.4  66.6 1016.2 30.0  1.022 -99.9 -99.99 -9.99
2019/08/21 07:42 EDT    1.17   1.67    6  152    8  75.6  66.6 1016.2 30.0  1.022 -99.9 -99.99 -9.99
2019/08/21 07:48 EDT    1.22   1.76    7  165    9  75.6  66.9 1016.3 30.0  1.022 -99.9 -99.99 -9.99
2019/08/21 07:54 EDT    1.27   1.78    7  166    9  75.6  66.9 1016.4 29.9  1.022 -99.9 -99.99 -9.99
2019/08/21 08:00 EDT    1.32   1.77    5  173    8  75.4  66.9 1016.4 30.0  1.022 -99.9 -99.99 -9.99
2019/08/21 08:06 EDT    1.37   1.86    5  177    7  75.6  66.9 1016.5 30.0  1.022 -99.9 -99.99 -9.99
2019/08/21 08:12 EDT    1.42   1.96    5  173    7  75.7  67.1 1016.5 29.9  1.022 -99.9 -99.99 -9.99
2019/08/21 08:18 EDT    1.48   1.99    5  162    6  75.7  66.9 1016.4 29.9  1.022 -99.9 -99.99 -9.99
2019/08/21 08:24 EDT    1.53   2.09    5  172    6  75.9  66.9 1016.5 30.0  1.022 -99.9 -99.99 -9.99
2019/08/21 08:30 EDT    1.58   2.13    6  175    7  76.3  66.9 1016.5 30.0  1.022 -99.9 -99.99 -9.99
2019/08/21 08:36 EDT    1.64   2.21    5  173    6  76.5  66.9 1016.4 29.9  1.022 -99.9 -99.99 -9.99
2019/08/21 08:42 EDT    1.69   2.32    6  169    7  76.5  66.9 1016.3 29.9  1.022 -99.9 -99.99 -9.99
2019/08/21 08:48 EDT    1.75   2.29    6  174    7  76.3  66.9 1016.4 29.9  1.022 -99.9 -99.99 -9.99
2019/08/21 08:54 EDT    1.81   2.40    6  162    8  76.3  66.9 1016.2 29.9  1.022 -99.9 -99.99 -9.99
2019/08/21 09:00 EDT    1.87   2.46    7  163    8  76.6  66.9 1016.0 29.9  1.022 -99.9 -99.99 -9.99
2019/08/21 09:06 EDT    1.93   2.49    7  171    9  76.8  67.1 1016.1 29.9  1.022 -99.9 -99.99 -9.99
2019/08/21 09:12 EDT    1.98   2.62    7  164    9  76.6  67.1 1015.9 29.9  1.022 -99.9 -99.99 -9.99
2019/08/21 09:18 EDT    2.04   2.71    6  154    9  76.6  67.1 1015.9 29.9  1.022 -99.9 -99.99 -9.99
2019/08/21 09:24 EDT    2.10   2.74    4  158    7  76.6  67.3 1015.8 29.9  1.022 -99.9 -99.99 -9.99
2019/08/21 09:30 EDT    2.17   2.85    6  150    9  76.6  67.3 1015.8 29.9  1.022 -99.9 -99.99 -9.99
2019/08/21 09:36 EDT    2.23   2.89    7  162    9  76.5  67.3 1016.0 29.8  1.022 -99.9 -99.99 -9.99
2019/08/21 09:42 EDT    2.29   2.87    7  158   10  76.1  67.3 1016.0 29.9  1.022 -99.9 -99.99 -9.99
2019/08/21 09:48 EDT    2.35   2.96    8  162   10  76.3  67.3 1016.0 29.9  1.022 -99.9 -99.99 -9.99
2019/08/21 09:54 EDT    2.41   3.03    8  159   10  76.3  67.3 1015.9 29.9  1.022 -99.9 -99.99 -9.99
2019/08/21 10:00 EDT    2.47   3.04    8  158   10  76.6  67.3 1015.7 29.9  1.022 -99.9 -99.99 -9.99
2019/08/21 10:06 EDT    2.53   3.13    7  168   10  76.8  67.5 1015.6 29.8  1.022 -99.9 -99.99 -9.99
2019/08/21 10:12 EDT    2.59   3.17    6  169   10  76.6  67.3 1015.5 29.8  1.022 -99.9 -99.99 -9.99
2019/08/21 10:18 EDT    2.65   3.16    7  171    9  77.0  67.3 1015.4 29.8  1.022 -99.9 -99.99 -9.99
2019/08/21 10:24 EDT    2.71   3.29    7  174    9  77.0  67.3 1015.5 29.8  1.022 -99.9 -99.99 -9.99
2019/08/21 10:30 EDT    2.76   3.31    6  170    8  76.8  67.3 1015.5 29.7  1.022 -99.9 -99.99 -9.99
2019/08/21 10:36 EDT    2.82   3.35    6  166    8  77.0  67.3 1015.4 29.8  1.022 -99.9 -99.99 -9.99
2019/08/21 10:42 EDT    2.87   3.44    9  166   10  77.0  67.5 1015.5 29.8  1.022 -99.9 -99.99 -9.99
2019/08/21 10:48 EDT    2.92   3.48    9  168   11  76.8  67.5 1015.5 29.8  1.022 -99.9 -99.99 -9.99
2019/08/21 10:54 EDT    2.97   3.53   10  165   11  77.2  67.5 1015.2 29.8  1.022 -99.9 -99.99 -9.99
2019/08/21 11:00 EDT    3.02   3.56    9  162   13  77.5  67.5 1015.0 29.8  1.022 -99.9 -99.99 -9.99
2019/08/21 11:06 EDT    3.06   3.60   10  160   12  77.4  67.3 1015.2 29.8  1.022 -99.9 -99.99 -9.99
2019/08/21 11:12 EDT    3.11   3.61    9  159   11  77.0  67.3 1015.1 29.8  1.022 -99.9 -99.99 -9.99
2019/08/21 11:18 EDT    3.15   3.63   13  166   14  76.3  67.3 1015.3 29.8  1.022 -99.9 -99.99 -9.99
2019/08/21 11:24 EDT    3.18   3.64   13  169   21  74.1  67.3 1015.3 29.8  1.022 -99.9 -99.99 -9.99
2019/08/21 11:30 EDT    3.22   3.72   10  163   15  73.8  67.3 1015.0 29.8  1.022 -99.9 -99.99 -9.99
2019/08/21 11:36 EDT    3.25   3.76    5  169   11  73.6  67.3 1014.7 29.8  1.022 -99.9 -99.99 -9.99
2019/08/21 11:42 EDT    3.27   3.84    5  144    5  74.1  67.3 1014.5 29.8  1.022 -99.9 -99.99 -9.99
2019/08/21 11:48 EDT    3.30   3.86    1  165    5  75.2  67.3 1014.4 29.8  1.022 -99.9 -99.99 -9.99
2019/08/21 11:54 EDT    3.32   3.87    4  189    4  75.6  67.3 1014.3 29.7  1.022 -99.9 -99.99 -9.99
2019/08/21 12:00 EDT    3.33   3.92    5  160    6  75.6  67.3 1014.3 29.8  1.022 -99.9 -99.99 -9.99
2019/08/21 12:06 EDT    3.34   3.97    7  179    8  76.5  67.3 1014.3 29.8  1.022 -99.9 -99.99 -9.99
2019/08/21 12:12 EDT    3.35   3.97    7  179   10  76.5  67.3 1014.3 29.8  1.022 -99.9 -99.99 -9.99
2019/08/21 12:18 EDT    3.35   3.93    9  180   12  76.6  67.3 1014.4 29.8  1.022 -99.9 -99.99 -9.99
2019/08/21 12:24 EDT    3.35   4.03    9  182   12  76.6  67.3 1014.3 29.8  1.022 -99.9 -99.99 -9.99
2019/08/21 12:30 EDT    3.35   3.99   10  180   13  76.3  67.3 1014.4 29.8  1.022 -99.9 -99.99 -9.99
2019/08/21 12:36 EDT    3.34   4.09   10  174   12  75.9  67.3 1014.4 29.8  1.022 -99.9 -99.99 -9.99
2019/08/21 12:42 EDT    3.32   4.06   11  171   14  75.9  66.6 1014.4 29.8  1.022 -99.9 -99.99 -9.99
2019/08/21 12:48 EDT    3.30   3.96   10  175   14  75.9  66.2 1014.2 29.9  1.022 -99.9 -99.99 -9.99
2019/08/21 12:54 EDT    3.28   4.03   13  175   15  75.9  67.1 1014.2 29.8  1.022 -99.9 -99.99 -9.99
2019/08/21 13:00 EDT    3.25   3.98   11  182   16  76.3  66.4 1014.4 29.8  1.022 -99.9 -99.99 -9.99
2019/08/21 13:06 EDT    3.22   3.91   12  189   15  76.3  66.2 1014.3 29.8  1.022 -99.9 -99.99 -9.99
2019/08/21 13:12 EDT    3.19   3.91   11  191   14  76.6  65.7 1014.2 29.9  1.022 -99.9 -99.99 -9.99
2019/08/21 13:18 EDT    3.15   3.92   12  188   15  77.0  66.0 1014.2 29.8  1.022 -99.9 -99.99 -9.99
2019/08/21 13:24 EDT    3.11   3.83   11  197   14  77.0  66.2 1014.2 29.9  1.022 -99.9 -99.99 -9.99
2019/08/21 13:30 EDT    3.06   3.86   12  197   16  77.2  66.6 1014.1 29.9  1.022 -99.9 -99.99 -9.99
2019/08/21 13:36 EDT    3.01   3.80   13  190   15  77.0  66.6 1014.1 29.7  1.022 -99.9 -99.99 -9.99
2019/08/21 13:42 EDT    2.96   3.75   14  189   18  77.2  67.1 1014.0 29.8  1.022 -99.9 -99.99 -9.99
2019/08/21 13:48 EDT    2.91   3.71   13  186   17  77.5  66.9 1013.9 29.7  1.022 -99.9 -99.99 -9.99
2019/08/21 13:54 EDT    2.85   3.65   14  187   16  77.5  67.1 1013.9 29.8  1.022 -99.9 -99.99 -9.99
2019/08/21 14:00 EDT    2.79   3.60   12  193   16  77.2  67.3 1013.9 29.7  1.022 -99.9 -99.99 -9.99
2019/08/21 14:06 EDT    2.72   3.55   12  190   14  77.0  67.3 1013.7 29.7  1.022 -99.9 -99.99 -9.99
2019/08/21 14:12 EDT    2.66   3.54   14  188   16  76.8  67.3 1013.6 29.7  1.022 -99.9 -99.99 -9.99
2019/08/21 14:18 EDT    2.59   3.40   12  192   15  76.6  67.3 1013.5 29.7  1.022 -99.9 -99.99 -9.99
2019/08/21 14:24 EDT    2.52   3.33   12  190   15  76.6  67.5 1013.4 29.7  1.022 -99.9 -99.99 -9.99
2019/08/21 14:30 EDT    2.45   3.24   13  196   18  76.3  67.5 1013.3 29.7  1.022 -99.9 -99.99 -9.99
2019/08/21 14:36 EDT    2.38   3.17   13  207   16  76.1  67.5 1013.4 29.7  1.022 -99.9 -99.99 -9.99
2019/08/21 14:42 EDT    2.31   3.14   12  206   16  76.1  67.6 1013.4 29.7  1.022 -99.9 -99.99 -9.99
2019/08/21 14:48 EDT    2.23   3.02   14  204   17  76.5  67.5 1013.3 29.7  1.022 -99.9 -99.99 -9.99
2019/08/21 14:54 EDT    2.16   2.93   13  202   18  76.6  67.6 1013.3 29.7  1.022 -99.9 -99.99 -9.99
2019/08/21 15:00 EDT    2.08   2.83   15  205   18  76.8  67.6 1013.3 29.7  1.022 -99.9 -99.99 -9.99
2019/08/21 15:06 EDT    2.01   2.75   17  207   20  77.0  67.8 1013.3 29.7  1.022 -99.9 -99.99 -9.99
2019/08/21 15:12 EDT    1.93   2.67   16  206   19  77.2  68.0 1013.2 29.7  1.022 -99.9 -99.99 -9.99
2019/08/21 15:18 EDT    1.85   2.52   17  206   23  77.5  68.0 1013.0 29.7  1.022 -99.9 -99.99 -9.99
2019/08/21 15:24 EDT    1.78   2.42   17  208   20  77.5  68.0 1013.0 29.7  1.022 -99.9 -99.99 -9.99
2019/08/21 15:30 EDT    1.71   2.32   14  201   23  77.4  68.2 1013.1 29.7  1.022 -99.9 -99.99 -9.99
2019/08/21 15:36 EDT    1.63   2.26   13  192   17  77.5  68.2 1013.1 29.7  1.022 -99.9 -99.99 -9.99
2019/08/21 15:42 EDT    1.56   2.13   13  195   17  77.7  68.0 1013.1 29.7  1.022 -99.9 -99.99 -9.99
2019/08/21 15:48 EDT    1.49   2.02   14  194   18  78.1  68.5 1013.0 29.6  1.022 -99.9 -99.99 -9.99
2019/08/21 15:54 EDT    1.42   1.98   15  194   19  77.7  68.4 1012.9 29.6  1.022 -99.9 -99.99 -9.99
2019/08/21 16:00 EDT    1.36   1.87   13  189   17  77.7  68.2 1012.9 29.6  1.022 -99.9 -99.99 -9.99
2019/08/21 16:06 EDT    1.29   1.79   13  191   18  77.4  68.7 1013.0 29.6  1.021 -99.9 -99.99 -9.99
2019/08/21 16:12 EDT    1.23   1.72   13  190   17  77.4  68.4 1013.0 29.7  1.022 -99.9 -99.99 -9.99
2019/08/21 16:18 EDT    1.18   1.60   10  191   16  77.5  68.4 1013.0 29.7  1.022 -99.9 -99.99 -9.99
2019/08/21 16:24 EDT    1.12   1.58   10  196   14  77.2  68.7 1013.0 29.6  1.021 -99.9 -99.99 -9.99
2019/08/21 16:30 EDT    1.07   1.52   10  196   17  77.4  68.7 1012.9 29.6  1.021 -99.9 -99.99 -9.99
2019/08/21 16:36 EDT    1.02   1.46    9  196   13  77.2  68.5 1012.8 29.6  1.022 -99.9 -99.99 -9.99
2019/08/21 16:42 EDT    0.97   1.37   10  197   13  76.8  68.7 1012.8 29.2  1.021 -99.9 -99.99 -9.99
2019/08/21 16:48 EDT    0.93   1.35   10  198   13  76.6  68.7 1012.8 29.8  1.022 -99.9 -99.99 -9.99
2019/08/21 16:54 EDT    0.90   1.30    8  202   14  76.8  68.7 1012.9 29.7  1.022 -99.9 -99.99 -9.99
2019/08/21 17:00 EDT    0.86   1.24    8  199   10  77.4  68.7 1012.8 29.8  1.022 -99.9 -99.99 -9.99
2019/08/21 17:06 EDT    0.83   1.21   11  192   12  77.9  68.5 1012.8 29.7  1.022 -99.9 -99.99 -9.99
2019/08/21 17:12 EDT    0.81   1.18   10  196   14  77.5  68.7 1012.8 29.7  1.022 -99.9 -99.99 -9.99
2019/08/21 17:18 EDT    0.79   1.20   11  192   14  77.2  68.7 1012.7 29.7  1.022 -99.9 -99.99 -9.99
2019/08/21 17:24 EDT    0.77   1.22   14  191   16  77.4  68.7 1012.5 29.7  1.022 -99.9 -99.99 -9.99
2019/08/21 17:30 EDT    0.75   1.12   13  189   18  77.2  68.7 1012.4 29.7  1.022 -99.9 -99.99 -9.99
2019/08/21 17:36 EDT    0.74   1.18   14  192   18  76.6  68.7 1012.4 29.8  1.022 -99.9 -99.99 -9.99
2019/08/21 17:42 EDT    0.74   1.22   13  192   17  76.5  68.7 1012.2 29.7  1.022 -99.9 -99.99 -9.99
2019/08/21 17:48 EDT    0.73   1.20   14  192   17  76.5  68.7 1012.1 29.9  1.022 -99.9 -99.99 -9.99
2019/08/21 17:54 EDT    0.73   1.25   12  193   18  76.3  68.7 1012.1 29.9  1.022 -99.9 -99.99 -9.99
2019/08/21 18:00 EDT    0.74   1.24   13  190   16  76.5  68.7 1012.0 29.9  1.022 -99.9 -99.99 -9.99
2019/08/21 18:06 EDT    0.74   1.26   13  190   16  76.1  68.7 1012.0 29.8  1.022 -99.9 -99.99 -9.99
2019/08/21 18:12 EDT    0.75   1.30   13  188   15  76.3  68.7 1011.8 29.8  1.022 -99.9 -99.99 -9.99
2019/08/21 18:18 EDT    0.76   1.32   13  190   17  76.1  68.5 1011.8 29.9  1.022 -99.9 -99.99 -9.99
2019/08/21 18:24 EDT    0.77   1.32   12  191   17  76.1  68.5 1011.8 29.9  1.022 -99.9 -99.99 -9.99
2019/08/21 18:30 EDT    0.79   1.39   12  194   16  76.1  68.5 1011.9 29.9  1.022 -99.9 -99.99 -9.99
2019/08/21 18:36 EDT    0.81   1.44   14  195   17  76.1  68.7 1011.9 29.9  1.022 -99.9 -99.99 -9.99
2019/08/21 18:42 EDT    0.82   1.40   12  194   18  75.7  68.7 1011.7 29.9  1.022 -99.9 -99.99 -9.99
2019/08/21 18:48 EDT    0.84   1.55   11  199   14  75.6  68.9 1011.7 29.8  1.022 -99.9 -99.99 -9.99
2019/08/21 18:54 EDT    0.87   1.53   12  206   15  75.7  68.9 1011.7 29.9  1.022 -99.9 -99.99 -9.99
2019/08/21 19:00 EDT    0.89   1.55   12  196   16  75.7  68.9 1011.6 29.8  1.022 -99.9 -99.99 -9.99
2019/08/21 19:06 EDT    0.91   1.60   13  200   18  75.7  68.7 1011.4 29.9  1.022 -99.9 -99.99 -9.99
2019/08/21 19:12 EDT    0.94   1.62   12  203   18  75.7  68.7 1011.5 29.8  1.022 -99.9 -99.99 -9.99
2019/08/21 19:18 EDT    0.96   1.67   13  203   16  75.7  68.7 1011.5 29.8  1.022 -99.9 -99.99 -9.99
2019/08/21 19:24 EDT    0.99   1.71   12  207   14  75.4  68.7 1011.5 29.8  1.022 -99.9 -99.99 -9.99
2019/08/21 19:30 EDT    1.01   1.72   12  206   16  75.4  68.5 1011.4 29.8  1.022 -99.9 -99.99 -9.99
2019/08/21 19:36 EDT    1.04   1.76   10  211   16  75.0  68.7 1011.5 29.8  1.022 -99.9 -99.99 -9.99
2019/08/21 19:42 EDT    1.07   1.83    8  223   12  74.5  68.5 1011.7 29.9  1.022 -99.9 -99.99 -9.99
2019/08/21 19:48 EDT    1.10   1.84    9  221   11  74.3  68.5 1011.8 29.8  1.022 -99.9 -99.99 -9.99
2019/08/21 19:54 EDT    1.13   1.87   10  218   12  74.3  68.5 1011.7 29.8  1.022 -99.9 -99.99 -9.99
2019/08/21 20:00 EDT    1.16   1.93    9  222   13  74.1  68.5 1011.8 29.8  1.022 -99.9 -99.99 -9.99
2019/08/21 20:06 EDT    1.19   1.90   10  216   11  73.9  68.5 1011.6 29.8  1.022 -99.9 -99.99 -9.99
2019/08/21 20:12 EDT    1.22   2.01   10  219   12  73.9  68.5 1011.8 29.8  1.022 -99.9 -99.99 -9.99
2019/08/21 20:18 EDT    1.25   2.03    9  217   11  73.8  68.5 1011.6 29.8  1.022 -99.9 -99.99 -9.99
2019/08/21 20:24 EDT    1.28   2.01    8  221   10  73.8  68.5 1011.6 29.8  1.022 -99.9 -99.99 -9.99
2019/08/21 20:30 EDT    1.32   2.04    8  221   10  73.8  68.5 1011.8 29.8  1.022 -99.9 -99.99 -9.99
2019/08/21 20:36 EDT    1.35   2.08    9  207   11  73.8  68.5 1011.6 29.8  1.022 -99.9 -99.99 -9.99
2019/08/21 20:42 EDT    1.39   2.13    9  214   11  73.8  68.5 1011.8 29.8  1.022 -99.9 -99.99 -9.99
2019/08/21 20:48 EDT    1.43   2.16    8  211   10  73.8  68.5 1011.8 29.8  1.022 -99.9 -99.99 -9.99
2019/08/21 20:54 EDT    1.47   2.21    9  212   11  73.9  68.7 1011.8 29.7  1.022 -99.9 -99.99 -9.99
2019/08/21 21:00 EDT    1.51   2.22    9  211   11  73.8  68.7 1011.8 29.7  1.022 -99.9 -99.99 -9.99
2019/08/21 21:06 EDT    1.55   2.24    9  207   11  73.8  68.7 1011.9 29.7  1.022 -99.9 -99.99 -9.99
2019/08/21 21:12 EDT    1.59   2.29    7  216   10  73.8  68.7 1012.1 29.8  1.022 -99.9 -99.99 -9.99
2019/08/21 21:18 EDT    1.64   2.35    8  217   10  73.6  68.7 1012.1 29.8  1.022 -99.9 -99.99 -9.99
2019/08/21 21:24 EDT    1.68   2.39   10  210   11  73.8  68.7 1012.0 29.8  1.022 -99.9 -99.99 -9.99
2019/08/21 21:30 EDT    1.73   2.40   11  205   13  73.6  68.7 1011.9 29.8  1.022 -99.9 -99.99 -9.99
2019/08/21 21:36 EDT    1.78   2.42   11  209   13  73.6  68.7 1011.8 29.8  1.022 -99.9 -99.99 -9.99
2019/08/21 21:42 EDT    1.83   2.50   12  211   14  73.8  68.7 1011.9 29.8  1.022 -99.9 -99.99 -9.99
2019/08/21 21:48 EDT    1.88   2.58   13  214   15  73.8  68.7 1012.0 29.7  1.022 -99.9 -99.99 -9.99
2019/08/21 21:54 EDT    1.93   2.65   16  226   17  74.7  68.7 1011.9 29.7  1.022 -99.9 -99.99 -9.99
2019/08/21 22:00 EDT    1.98   2.65   15  226   19  75.4  68.5 1011.9 29.8  1.022 -99.9 -99.99 -9.99
2019/08/21 22:06 EDT    2.04   2.69   14  230   18  75.6  68.7 1011.9 29.7  1.022 -99.9 -99.99 -9.99
2019/08/21 22:12 EDT    2.09   2.71   14  240   18  75.9  68.5 1011.8 29.8  1.022 -99.9 -99.99 -9.99
2019/08/21 22:18 EDT    2.14   2.72   13  234   20  76.1  68.5 1011.7 29.8  1.022 -99.9 -99.99 -9.99
2019/08/21 22:24 EDT    2.20   2.71   15  236   17  76.3  68.5 1011.6 29.8  1.022 -99.9 -99.99 -9.99
2019/08/21 22:30 EDT    2.25   2.69   15  238   22  76.3  68.5 1011.6 29.8  1.022 -99.9 -99.99 -9.99
2019/08/21 22:36 EDT    2.31   2.82   15  238   21  76.1  68.5 1011.6 29.8  1.022 -99.9 -99.99 -9.99
2019/08/21 22:42 EDT    2.36   2.82   17  233   21  76.3  68.5 1011.5 29.8  1.022 -99.9 -99.99 -9.99
2019/08/21 22:48 EDT    2.42   2.89   16  234   22  76.1  68.5 1011.5 29.8  1.022 -99.9 -99.99 -9.99
2019/08/21 22:54 EDT    2.47   2.97   17  232   24  75.6  68.4 1011.4 29.9  1.022 -99.9 -99.99 -9.99
2019/08/21 23:00 EDT    2.52   3.01   19  235   23  75.9  68.4 1011.4 29.8  1.022 -99.9 -99.99 -9.99
2019/08/21 23:06 EDT    2.57   3.10   16  236   21  75.7  68.4 1011.7 29.8  1.022 -99.9 -99.99 -9.99
2019/08/21 23:12 EDT    2.62   3.10   13  246   17  75.4  68.4 1011.8 29.8  1.022 -99.9 -99.99 -9.99
2019/08/21 23:18 EDT    2.67   3.20   15  247   19  75.7  68.4 1011.8 29.8  1.022 -99.9 -99.99 -9.99
2019/08/21 23:24 EDT    2.71   3.23   15  252   18  75.7  68.4 1011.8 29.8  1.022 -99.9 -99.99 -9.99
2019/08/21 23:30 EDT    2.76   3.24   13  241   16  75.4  68.4 1012.0 29.8  1.022 -99.9 -99.99 -9.99
2019/08/21 23:36 EDT    2.80   3.30   12  250   16  75.4  68.4 1012.1 29.8  1.022 -99.9 -99.99 -9.99
2019/08/21 23:42 EDT    2.84   3.22    9  243   14  75.0  68.4 1012.0 29.7  1.022 -99.9 -99.99 -9.99
2019/08/21 23:48 EDT    2.87   3.38    9  234   10  75.2  68.4 1011.9 29.8  1.022 -99.9 -99.99 -9.99
2019/08/21 23:54 EDT    2.91   3.37   10  240   12  75.2  68.4 1011.9 29.8  1.022 -99.9 -99.99 -9.99
2019/08/22 00:00 EDT    2.94   3.32    8  230   11  75.2  68.4 1011.8 29.8  1.022 -99.9 -99.99 -9.99
2019/08/22 00:06 EDT    2.96   3.42    8  220   11  75.2  68.4 1011.8 29.7  1.022 -99.9 -99.99 -9.99
2019/08/22 00:12 EDT    2.98   3.43    7  217    9  74.8  68.4 1011.8 29.8  1.022 -99.9 -99.99 -9.99
2019/08/22 00:18 EDT    3.00   3.42    7  206    8  73.9  68.4 1011.7 29.7  1.022 -99.9 -99.99 -9.99
2019/08/22 00:24 EDT    3.02   3.55    8  207    9  73.8  68.4 1011.6 29.8  1.022 -99.9 -99.99 -9.99
2019/08/22 00:30 EDT    3.03   3.46   10  207   11  73.6  68.4 1011.6 29.8  1.022 -99.9 -99.99 -9.99
2019/08/22 00:36 EDT    3.03   3.47   10  208   11  73.6  68.4 1011.6 29.8  1.022 -99.9 -99.99 -9.99
2019/08/22 00:42 EDT    3.03   3.56    9  211   11  73.4  68.4 1011.5 29.8  1.022 -99.9 -99.99 -9.99
2019/08/22 00:48 EDT    3.03   3.55    9  217   10  73.2  68.4 1011.5 29.8  1.022 -99.9 -99.99 -9.99
2019/08/22 00:54 EDT    3.02   3.55   10  221   12  72.9  68.4 1011.5 29.9  1.022 -99.9 -99.99 -9.99
2019/08/22 01:00 EDT    3.01   3.58    8  218   11  72.5  68.4 1011.5 29.9  1.022 -99.9 -99.99 -9.99
2019/08/22 01:06 EDT    2.99   3.53    8  219   11  72.3  68.4 1011.6 29.9  1.022 -99.9 -99.99 -9.99
2019/08/22 01:12 EDT    2.97   3.47    8  218   10  72.1  68.4 1011.6 29.9  1.022 -99.9 -99.99 -9.99
2019/08/22 01:18 EDT    2.95   3.57    8  217   10  72.0  68.4 1011.5 29.7  1.022 -99.9 -99.99 -9.99
2019/08/22 01:24 EDT    2.92   3.52    8  219   10  72.1  68.4 1011.6 29.7  1.022 -99.9 -99.99 -9.99
2019/08/22 01:30 EDT    2.88   3.44    8  216   10  72.1  68.4 1011.6 29.3  1.021 -99.9 -99.99 -9.99
2019/08/22 01:36 EDT    2.84   3.44   10  217   11  72.5  68.4 1011.4 29.8  1.022 -99.9 -99.99 -9.99
2019/08/22 01:42 EDT    2.80   3.42    9  221   12  72.9  68.4 1011.3 29.9  1.022 -99.9 -99.99 -9.99
2019/08/22 01:48 EDT    2.76   3.32    8  218   10  72.7  68.4 1011.3 30.0  1.022 -99.9 -99.99 -9.99
2019/08/22 01:54 EDT    2.71   3.38    8  213   10  72.5  68.5 1011.2 30.0  1.022 -99.9 -99.99 -9.99
2019/08/22 02:00 EDT    2.65   3.32    9  206   10  72.3  68.5 1011.3 30.0  1.022 -99.9 -99.99 -9.99
2019/08/22 02:06 EDT    2.60   3.24    9  210   11  72.0  68.4 1011.3 30.0  1.022 -99.9 -99.99 -9.99
2019/08/22 02:12 EDT    2.54   3.28    7  203   10  71.8  68.5 1011.3 30.0  1.022 -99.9 -99.99 -9.99
2019/08/22 02:18 EDT    2.47   3.16    7  199    8  72.0  68.5 1011.1 30.0  1.022 -99.9 -99.99 -9.99
2019/08/22 02:24 EDT    2.41   3.07    7  194    9  72.1  68.5 1011.1 30.0  1.022 -99.9 -99.99 -9.99
2019/08/22 02:30 EDT    2.34   3.01    7  183    8  72.1  68.5 1011.0 30.0  1.022 -99.9 -99.99 -9.99
2019/08/22 02:36 EDT    2.27   2.93    7  195    8  72.5  68.5 1010.9 30.0  1.022 -99.9 -99.99 -9.99
2019/08/22 02:42 EDT    2.20   2.86    7  207   10  72.9  68.5 1010.8 30.0  1.022 -99.9 -99.99 -9.99
2019/08/22 02:48 EDT    2.13   2.76    7  207    9  72.9  68.5 1010.8 29.9  1.022 -99.9 -99.99 -9.99
2019/08/22 02:54 EDT    2.05   2.75    8  221    9  73.4  68.5 1010.7 30.0  1.022 -99.9 -99.99 -9.99
2019/08/22 03:00 EDT    1.97   2.67    7  228    9  73.9  68.5 1010.6 30.0  1.022 -99.9 -99.99 -9.99
2019/08/22 03:06 EDT    1.90   2.59    7  221   10  74.3  68.5 1010.5 30.0  1.022 -99.9 -99.99 -9.99
2019/08/22 03:12 EDT    1.82   2.44    6  214    8  74.1  68.5 1010.2 30.0  1.022 -99.9 -99.99 -9.99
2019/08/22 03:18 EDT    1.74   2.36    6  214    7  73.9  68.5 1010.2 29.9  1.022 -99.9 -99.99 -9.99
2019/08/22 03:24 EDT    1.67   2.36    6  212    7  73.6  68.5 1010.3 30.0  1.022 -99.9 -99.99 -9.99
2019/08/22 03:30 EDT    1.59   2.14    5  230    7  73.6  68.5 1010.3 30.0  1.022 -99.9 -99.99 -9.99
2019/08/22 03:36 EDT    1.51   2.12    3  232    7  73.6  68.7 1010.2 29.9  1.022 -99.9 -99.99 -9.99
2019/08/22 03:42 EDT    1.44   2.03    3  202    4  73.4  68.5 1010.1 30.0  1.022 -99.9 -99.99 -9.99
2019/08/22 03:48 EDT    1.36   1.92    5  201    5  73.0  68.5 1010.0 30.0  1.022 -99.9 -99.99 -9.99
2019/08/22 03:54 EDT    1.29   1.86    4  208    5  72.9  68.5 1010.1 30.0  1.022 -99.9 -99.99 -9.99
2019/08/22 04:00 EDT    1.22   1.76    4  244    5  73.0  68.5 1009.9 30.0  1.022 -99.9 -99.99 -9.99
2019/08/22 04:06 EDT    1.15   1.68    3  194    4  73.2  68.5 1009.8 30.0  1.022 -99.9 -99.99 -9.99
2019/08/22 04:12 EDT    1.08   1.52    3  208    4  72.9  68.5 1009.8 30.0  1.022 -99.9 -99.99 -9.99
2019/08/22 04:18 EDT    1.01   1.48    1  224    4  73.0  68.7 1009.9 29.9  1.022 -99.9 -99.99 -9.99
2019/08/22 04:24 EDT    0.95   1.44    1  176    1  72.9  68.5 1009.9 30.0  1.022 -99.9 -99.99 -9.99
2019/08/22 04:30 EDT    0.89   1.37    4  170    4  73.2  68.7 1009.9 29.9  1.022 -99.9 -99.99 -9.99
2019/08/22 04:36 EDT    0.83   1.36    5  187    6  73.2  68.5 1009.9 30.0  1.022 -99.9 -99.99 -9.99
2019/08/22 04:42 EDT    0.78   1.24    6  183    7  73.4  68.5 1010.0 30.0  1.022 -99.9 -99.99 -9.99
2019/08/22 04:48 EDT    0.73   1.28    4  170    7  73.0  68.5 1010.0 30.0  1.022 -99.9 -99.99 -9.99
2019/08/22 04:54 EDT    0.69   1.27    3  181    5  72.7  68.5 1010.0 30.0  1.022 -99.9 -99.99 -9.99
2019/08/22 05:00 EDT    0.65   1.20    4  182    5  72.5  68.4 1010.2 30.0  1.022 -99.9 -99.99 -9.99
2019/08/22 05:06 EDT    0.61   1.19    4  189    6  72.3  68.4 1010.3 30.1  1.022 -99.9 -99.99 -9.99
2019/08/22 05:12 EDT    0.57   1.11    4  193    5  72.3  68.5 1010.3 30.1  1.022 -99.9 -99.99 -9.99
2019/08/22 05:18 EDT    0.55   1.08    3  171    5  72.3  68.5 1010.2 30.1  1.022 -99.9 -99.99 -9.99
2019/08/22 05:24 EDT    0.52   0.97    4  184    4  72.5  68.4 1010.2 30.1  1.022 -99.9 -99.99 -9.99
2019/08/22 05:30 EDT    0.50   0.98    4  177    6  72.5  68.4 1010.2 29.9  1.022 -99.9 -99.99 -9.99
2019/08/22 05:36 EDT    0.49   0.98    2  198    4  72.5  68.4 1010.2 29.9  1.022 -99.9 -99.99 -9.99
2019/08/22 05:42 EDT    0.47   0.97    4  199    4  72.5  68.2 1010.2 30.0  1.022 -99.9 -99.99 -9.99
2019/08/22 05:48 EDT    0.47   0.97    4  212    6  72.5  68.0 1010.3 30.0  1.022 -99.9 -99.99 -9.99
2019/08/22 05:54 EDT    0.46   0.94    4  200    5  72.3  68.2 1010.2 30.0  1.022 -99.9 -99.99 -9.99
2019/08/22 06:00 EDT    0.47   1.00    4  190    4  72.3  68.0 1010.2 30.0  1.022 -99.9 -99.99 -9.99
2019/08/22 06:06 EDT    0.47   0.94    3  195    5  72.3  67.8 1010.4 29.8  1.022 -99.9 -99.99 -9.99
2019/08/22 06:12 EDT    0.48   0.97    3  206    4  72.5  67.8 1010.4 29.9  1.022 -99.9 -99.99 -9.99
2019/08/22 06:18 EDT    0.49   1.02    2  187    4  72.3  67.8 1010.6 30.0  1.022 -99.9 -99.99 -9.99
2019/08/22 06:24 EDT    0.51   1.00    3  192    4  72.3  68.0 1010.7 29.9  1.022 -99.9 -99.99 -9.99
2019/08/22 06:30 EDT    0.53   1.05    3  195    3  72.3  67.8 1010.7 30.0  1.022 -99.9 -99.99 -9.99
2019/08/22 06:36 EDT    0.55   1.10    2  211    3  72.5  68.0 1010.7 29.9  1.022 -99.9 -99.99 -9.99
2019/08/22 06:42 EDT    0.57   1.06    1  211    2  72.5  68.0 1010.7 29.9  1.022 -99.9 -99.99 -9.99
2019/08/22 06:48 EDT    0.60   1.15    1  178    2  72.5  68.0 1010.8 29.9  1.022 -99.9 -99.99 -9.99
2019/08/22 06:54 EDT    0.63   1.20    2  200    2  72.7  68.0 1010.9 29.9  1.022 -99.9 -99.99 -9.99
2019/08/22 07:00 EDT    0.66   1.12    1  231    2  72.5  67.8 1010.9 30.1  1.022 -99.9 -99.99 -9.99
2019/08/22 07:06 EDT    0.70   1.22    2  207    2  72.5  67.5 1011.1 30.1  1.022 -99.9 -99.99 -9.99
2019/08/22 07:12 EDT    0.73   1.35    2  198    3  72.7  67.8 1011.1 30.0  1.022 -99.9 -99.99 -9.99
2019/08/22 07:18 EDT    0.77   1.27    3  200    3  72.7  67.8 1011.1 30.1  1.022 -99.9 -99.99 -9.99
2019/08/22 07:24 EDT    0.81   1.34    3  216    3  72.5  67.6 1011.2 30.1  1.022 -99.9 -99.99 -9.99
2019/08/22 07:30 EDT    0.85   1.41    3  212    4  72.5  67.8 1011.3 30.1  1.022 -99.9 -99.99 -9.99
2019/08/22 07:36 EDT    0.89   1.33    4  205    4  72.3  68.0 1011.4 30.1  1.022 -99.9 -99.99 -9.99
2019/08/22 07:42 EDT    0.93   1.38    4  194    4  72.1  67.8 1011.5 30.0  1.022 -99.9 -99.99 -9.99
2019/08/22 07:48 EDT    0.97   1.43    5  198    5  72.0  68.2 1011.5 30.0  1.022 -99.9 -99.99 -9.99
2019/08/22 07:54 EDT    1.01   1.42    3  186    6  72.1  67.6 1011.4 30.0  1.022 -99.9 -99.99 -9.99
2019/08/22 08:00 EDT    1.05   1.52    2  197    4  72.5  68.0 1011.3 30.0  1.022 -99.9 -99.99 -9.99
2019/08/22 08:06 EDT    1.10   1.52    1  198    2  73.2  68.0 1011.3 30.0  1.022 -99.9 -99.99 -9.99
2019/08/22 08:12 EDT    1.14   1.66    1  177    2  73.2  67.6 1011.3 30.1  1.022 -99.9 -99.99 -9.99
2019/08/22 08:18 EDT    1.18   1.69    0  140    1  73.4  67.6 1011.1 30.1  1.022 -99.9 -99.99 -9.99
2019/08/22 08:24 EDT    1.23   1.74    1  182    2  73.8  67.8 1011.0 30.0  1.022 -99.9 -99.99 -9.99
2019/08/22 08:30 EDT    1.27   1.78    3  191    4  73.4  67.6 1011.0 30.0  1.022 -99.9 -99.99 -9.99
2019/08/22 08:36 EDT    1.32   1.84    3  178    4  73.6  67.6 1011.0 30.1  1.022 -99.9 -99.99 -9.99
2019/08/22 08:42 EDT    1.37   1.82    3  165    4  73.8  67.3 1011.0 30.1  1.022 -99.9 -99.99 -9.99
2019/08/22 08:48 EDT    1.42   1.84    3  169    3  74.5  67.5 1011.0 30.1  1.022 -99.9 -99.99 -9.99
2019/08/22 08:54 EDT    1.46   1.94    1  160    3  74.7  67.5 1010.9 30.1  1.022 -99.9 -99.99 -9.99
2019/08/22 09:00 EDT    1.51   2.00    2  174    3  75.0  67.6 1010.8 30.1  1.022 -99.9 -99.99 -9.99
2019/08/22 09:06 EDT    1.56   2.06    2  206    3  75.6  67.5 1010.9 30.1  1.022 -99.9 -99.99 -9.99
2019/08/22 09:12 EDT    1.61   2.15    2  193    2  77.2  67.6 1010.9 29.9  1.022 -99.9 -99.99 -9.99
2019/08/22 09:18 EDT    1.66   2.21    3  194    3  77.7  67.6 1010.9 30.0  1.022 -99.9 -99.99 -9.99
2019/08/22 09:24 EDT    1.72   2.23    3  206    3  76.8  67.6 1011.0 30.0  1.022 -99.9 -99.99 -9.99
2019/08/22 09:30 EDT    1.77   2.30    3  211    4  75.9  67.6 1011.2 30.0  1.022 -99.9 -99.99 -9.99
2019/08/22 09:36 EDT    1.82   2.33    3  207    4  75.6  67.8 1011.3 30.0  1.022 -99.9 -99.99 -9.99
2019/08/22 09:42 EDT    1.88   2.33    4  198    5  75.9  67.8 1011.2 30.0  1.022 -99.9 -99.99 -9.99
2019/08/22 09:48 EDT    1.93   2.39    7  191    8  75.6  67.6 1011.2 30.1  1.022 -99.9 -99.99 -9.99
2019/08/22 09:54 EDT    1.99   2.55    5  187    7  75.9  67.6 1011.3 30.1  1.022 -99.9 -99.99 -9.99
2019/08/22 10:00 EDT    2.05   2.59    5  174    6  75.9  67.1 1011.2 30.1  1.022 -99.9 -99.99 -9.99
2019/08/22 10:06 EDT    2.10   2.62    5  164    6  76.1  67.5 1011.1 30.1  1.022 -99.9 -99.99 -9.99
2019/08/22 10:12 EDT    2.16   2.63    6  168    6  76.8  67.6 1011.0 30.0  1.022 -99.9 -99.99 -9.99
2019/08/22 10:18 EDT    2.22   2.75    6  186    7  77.2  67.5 1011.0 30.1  1.022 -99.9 -99.99 -9.99
2019/08/22 10:24 EDT    2.28   2.82    5  184    7  77.0  67.5 1011.2 30.1  1.022 -99.9 -99.99 -9.99
2019/08/22 10:30 EDT    2.34   2.86    7  190    8  76.5  67.5 1011.2 30.0  1.022 -99.9 -99.99 -9.99
2019/08/22 10:36 EDT    2.40   2.97    6  192    8  76.6  67.1 1011.2 30.1  1.022 -99.9 -99.99 -9.99
2019/08/22 10:42 EDT    2.46   3.02    6  208    6  76.3  67.1 1011.2 30.1  1.022 -99.9 -99.99 -9.99
2019/08/22 10:48 EDT    2.51   3.10    6  198    7  76.3  67.1 1011.2 30.1  1.022 -99.9 -99.99 -9.99
2019/08/22 10:54 EDT    2.57   3.15    7  191    8  76.6  67.1 1011.3 30.1  1.022 -99.9 -99.99 -9.99
2019/08/22 11:00 EDT    2.63   3.16    7  181    9  77.4  67.1 1011.4 30.1  1.022 -99.9 -99.99 -9.99
2019/08/22 11:06 EDT    2.69   3.21   11  188   12  75.7  67.1 1011.6 30.0  1.022 -99.9 -99.99 -9.99
2019/08/22 11:12 EDT    2.74   3.30   11  186   13  74.8  66.9 1011.6 30.1  1.022 -99.9 -99.99 -9.99
2019/08/22 11:18 EDT    2.80   3.33   10  186   13  75.7  66.9 1011.5 30.1  1.022 -99.9 -99.99 -9.99
2019/08/22 11:24 EDT    2.85   3.37    7  187   11  76.6  66.9 1011.4 30.1  1.022 -99.9 -99.99 -9.99
2019/08/22 11:30 EDT    2.90   3.46    6  189    9  76.8  66.9 1011.3 30.1  1.022 -99.9 -99.99 -9.99
2019/08/22 11:36 EDT    2.95   3.53    5  194    7  77.2  66.9 1011.1 30.1  1.022 -99.9 -99.99 -9.99
2019/08/22 11:42 EDT    3.00   3.50    7  187    8  77.4  66.9 1011.0 30.1  1.022 -99.9 -99.99 -9.99
2019/08/22 11:48 EDT    3.05   3.55    6  192    7  77.5  66.9 1010.8 30.1  1.022 -99.9 -99.99 -9.99
2019/08/22 11:54 EDT    3.09   3.62    7  189    9  77.2  66.9 1010.7 30.1  1.022 -99.9 -99.99 -9.99
2019/08/22 12:00 EDT    3.13   3.63    6  194    9  77.2  66.9 1010.6 30.1  1.022 -99.9 -99.99 -9.99
2019/08/22 12:06 EDT    3.17   3.70    6  201    8  76.8  66.9 1010.6 30.1  1.022 -99.9 -99.99 -9.99
2019/08/22 12:12 EDT    3.20   3.72    8  195    9  77.0  66.9 1010.6 30.1  1.022 -99.9 -99.99 -9.99
2019/08/22 12:18 EDT    3.24   3.77    8  193    9  77.0  67.3 1010.6 30.1  1.022 -99.9 -99.99 -9.99
2019/08/22 12:24 EDT    3.26   3.81   10  188   11  76.8  67.5 1010.5 30.1  1.022 -99.9 -99.99 -9.99
2019/08/22 12:30 EDT    3.29   3.83    9  194   11  77.0  67.5 1010.4 30.1  1.022 -99.9 -99.99 -9.99
2019/08/22 12:36 EDT    3.31   3.82    6  206   10  77.2  67.6 1010.4 30.1  1.022 -99.9 -99.99 -9.99
2019/08/22 12:42 EDT    3.33   3.90    7  203    8  76.6  67.6 1010.3 30.1  1.022 -99.9 -99.99 -9.99
2019/08/22 12:48 EDT    3.34   3.92    8  200    9  76.5  67.8 1010.3 30.1  1.022 -99.9 -99.99 -9.99
2019/08/22 12:54 EDT    3.35   3.88    7  194   10  76.6  68.0 1010.2 30.0  1.022 -99.9 -99.99 -9.99
2019/08/22 13:00 EDT    3.35   4.02    6  195    8  77.2  67.5 1010.2 30.1  1.022 -99.9 -99.99 -9.99
2019/08/22 13:06 EDT    3.35   3.97    8  195    8  77.5  68.0 1010.1 30.0  1.022 -99.9 -99.99 -9.99
2019/08/22 13:12 EDT    3.35   4.01   10  205   11  77.5  67.6 1010.1 30.1  1.022 -99.9 -99.99 -9.99
2019/08/22 13:18 EDT    3.34   4.03    9  201   11  78.1  68.4 1010.2 30.0  1.022 -99.9 -99.99 -9.99
2019/08/22 13:24 EDT    3.33   3.99    9  196   11  78.3  68.2 1010.2 30.0  1.022 -99.9 -99.99 -9.99
2019/08/22 13:30 EDT    3.31   3.95   11  184   13  78.4  68.0 1010.4 30.1  1.022 -99.9 -99.99 -9.99
2019/08/22 13:36 EDT    3.29   3.97   12  183   14  77.7  68.2 1010.5 30.0  1.022 -99.9 -99.99 -9.99
2019/08/22 13:42 EDT    3.26   3.99   14  189   16  76.5  68.5 1010.5 30.0  1.022 -99.9 -99.99 -9.99
2019/08/22 13:48 EDT    3.23   3.91    9  202   17  75.7  68.7 1011.2 30.0  1.022 -99.9 -99.99 -9.99
2019/08/22 13:54 EDT    3.20   3.86    4  168   10  75.6  68.5 1011.1 30.0  1.022 -99.9 -99.99 -9.99
2019/08/22 14:00 EDT    3.16   3.83    6  178    9  75.4  68.5 1011.1 30.0  1.022 -99.9 -99.99 -9.99
2019/08/22 14:06 EDT    3.12   3.78    8  176    9  75.6  68.7 1011.1 30.0  1.022 -99.9 -99.99 -9.99
2019/08/22 14:12 EDT    3.07   3.79    7  180   12  76.3  68.7 1011.0 30.0  1.022 -99.9 -99.99 -9.99
2019/08/22 14:18 EDT    3.03   3.75    8  181   10  76.6  68.7 1011.0 30.0  1.022 -99.9 -99.99 -9.99
2019/08/22 14:24 EDT    2.97   3.73    7  171   10  76.6  68.9 1011.0 30.0  1.022 -99.9 -99.99 -9.99
2019/08/22 14:30 EDT    2.92   3.68    9  181   12  76.8  68.9 1010.9 30.0  1.022 -99.9 -99.99 -9.99
2019/08/22 14:36 EDT    2.86   3.60   11  190   12  76.6  69.1 1010.8 30.0  1.022 -99.9 -99.99 -9.99
2019/08/22 14:42 EDT    2.80   3.53   12  190   13  76.6  69.1 1010.8 30.0  1.022 -99.9 -99.99 -9.99
2019/08/22 14:48 EDT    2.74   3.46   11  194   13  77.0  69.1 1010.8 30.0  1.022 -99.9 -99.99 -9.99
2019/08/22 14:54 EDT    2.68   3.36   11  188   13  77.4  69.3 1010.7 30.0  1.022 -99.9 -99.99 -9.99
2019/08/22 15:00 EDT    2.61   3.30    9  198   13  77.7  69.3 1010.7 29.8  1.022 -99.9 -99.99 -9.99
2019/08/22 15:06 EDT    2.55   3.27   11  198   13  77.9  69.3 1010.5 29.8  1.022 -99.9 -99.99 -9.99
2019/08/22 15:12 EDT    2.48   3.20   11  203   14  77.2  69.4 1010.4 29.8  1.022 -99.9 -99.99 -9.99
2019/08/22 15:18 EDT    2.41   3.08   13  208   16  76.8  69.3 1010.3 29.9  1.022 -99.9 -99.99 -9.99
2019/08/22 15:24 EDT    2.34   3.05   13  209   15  76.5  69.4 1010.4 29.8  1.022 -99.9 -99.99 -9.99
2019/08/22 15:30 EDT    2.27   2.95   13  208   15  76.5  69.3 1010.4 29.9  1.022 -99.9 -99.99 -9.99
2019/08/22 15:36 EDT    2.20   2.83   12  209   15  75.9  69.4 1010.4 29.8  1.022 -99.9 -99.99 -9.99
2019/08/22 15:42 EDT    2.12   2.77   12  200   15  76.6  69.6 1010.3 29.9  1.022 -99.9 -99.99 -9.99
2019/08/22 15:48 EDT    2.05   2.63   11  197   13  77.4  69.6 1010.3 29.9  1.022 -99.9 -99.99 -9.99
2019/08/22 15:54 EDT    1.98   2.53    9  194   12  77.7  69.6 1010.3 29.9  1.022 -99.9 -99.99 -9.99
2019/08/22 16:00 EDT    1.91   2.52   10  190   12  77.7  69.8 1010.2 30.0  1.022 -99.9 -99.99 -9.99
2019/08/22 16:06 EDT    1.84   2.40    9  191   12  77.7  69.6 1010.2 29.9  1.022 -99.9 -99.99 -9.99
2019/08/22 16:12 EDT    1.77   2.32   10  187   11  78.1  69.8 1010.2 30.0  1.022 -99.9 -99.99 -9.99
2019/08/22 16:18 EDT    1.71   2.27    9  188   11  78.3  69.6 1010.1 29.9  1.022 -99.9 -99.99 -9.99
2019/08/22 16:24 EDT    1.64   2.16    7  203   10  77.9  69.8 1010.1 29.9  1.022 -99.9 -99.99 -9.99
2019/08/22 16:30 EDT    1.58   2.09    7  210   10  77.0  70.2 1010.1 29.9  1.021 -99.9 -99.99 -9.99
2019/08/22 16:36 EDT    1.51   2.05    8  213    9  76.5  69.8 1010.2 30.0  1.022 -99.9 -99.99 -9.99
2019/08/22 16:42 EDT    1.45   1.85    8  207   10  76.1  70.0 1010.4 29.9  1.021 -99.9 -99.99 -9.99
2019/08/22 16:48 EDT    1.40   1.78    9  212   11  75.9  70.0 1010.3 29.9  1.022 -99.9 -99.99 -9.99
2019/08/22 16:54 EDT    1.34   1.73    9  207   10  76.1  69.8 1010.2 29.9  1.022 -99.9 -99.99 -9.99
2019/08/22 17:00 EDT    1.29   1.68    9  209   11  76.3  70.0 1010.3 29.9  1.021 -99.9 -99.99 -9.99
2019/08/22 17:06 EDT    1.24   1.67    8  211   10  76.1  70.0 1010.3 29.9  1.022 -99.9 -99.99 -9.99
2019/08/22 17:12 EDT    1.19   1.50    8  212   10  76.1  70.2 1010.3 29.9  1.022 -99.9 -99.99 -9.99
2019/08/22 17:18 EDT    1.14   1.52    6  208    9  76.5  70.3 1010.3 29.9  1.021 -99.9 -99.99 -9.99
2019/08/22 17:24 EDT    1.10   1.51    6  210    7  76.5  70.2 1010.3 29.9  1.021 -99.9 -99.99 -9.99
2019/08/22 17:30 EDT    1.06   1.40    7  208   10  76.5  70.2 1010.3 29.9  1.021 -99.9 -99.99 -9.99
2019/08/22 17:36 EDT    1.03   1.41    7  211    9  76.3  70.2 1010.4 29.9  1.022 -99.9 -99.99 -9.99
2019/08/22 17:42 EDT    1.00   1.31    8  214    9  75.7  70.3 1010.4 29.9  1.021 -99.9 -99.99 -9.99
2019/08/22 17:48 EDT    0.97   1.29    9  213   10  75.4  70.3 1010.3 29.9  1.021 -99.9 -99.99 -9.99
2019/08/22 17:54 EDT    0.94   1.28    8  210   10  74.7  70.2 1010.4 29.8  1.021 -99.9 -99.99 -9.99
2019/08/22 18:00 EDT    0.92   1.22    8  214   11  74.7  70.3 1010.4 29.8  1.021 -99.9 -99.99 -9.99
2019/08/22 18:06 EDT    0.90   1.20    9  208   10  74.8  70.3 1010.4 29.8  1.021 -99.9 -99.99 -9.99
2019/08/22 18:12 EDT    0.88   1.24    7  198   11  75.2  70.3 1010.3 29.8  1.021 -99.9 -99.99 -9.99
2019/08/22 18:18 EDT    0.87   1.21    7  200    8  75.7  70.2 1010.3 29.8  1.021 -99.9 -99.99 -9.99
2019/08/22 18:24 EDT    0.86   1.19    9  207   11  76.5  70.2 1010.3 29.8  1.021 -99.9 -99.99 -9.99
2019/08/22 18:30 EDT    0.86   1.29    9  205   11  76.3  70.3 1010.4 29.8  1.021 -99.9 -99.99 -9.99
2019/08/22 18:36 EDT    0.85   1.25    9  206   10  76.1  70.2 1010.5 29.9  1.021 -99.9 -99.99 -9.99
2019/08/22 18:42 EDT    0.85   1.31    8  203   10  75.9  70.3 1010.5 29.8  1.021 -99.9 -99.99 -9.99
2019/08/22 18:48 EDT    0.85   1.34    7  204    9  75.7  70.2 1010.6 29.9  1.021 -99.9 -99.99 -9.99
2019/08/22 18:54 EDT    0.86   1.35    7  206    9  75.4  70.2 1010.7 29.8  1.021 -99.9 -99.99 -9.99
2019/08/22 19:00 EDT    0.86   1.37    6  210    9  75.2  70.2 1010.7 29.9  1.021 -99.9 -99.99 -9.99
2019/08/22 19:06 EDT    0.87   1.36    6  203    7  74.8  70.2 1010.7 29.8  1.021 -99.9 -99.99 -9.99
2019/08/22 19:12 EDT    0.88   1.38    5  212    7  74.7  70.3 1010.7 29.8  1.021 -99.9 -99.99 -9.99
2019/08/22 19:18 EDT    0.89   1.38    5  196    7  74.7  70.2 1010.6 29.9  1.021 -99.9 -99.99 -9.99
2019/08/22 19:24 EDT    0.90   1.40    4  192    6  74.5  70.2 1010.5 29.9  1.021 -99.9 -99.99 -9.99
2019/08/22 19:30 EDT    0.91   1.47    6  204    6  74.5  70.0 1010.6 29.9  1.021 -99.9 -99.99 -9.99
2019/08/22 19:36 EDT    0.93   1.41    6  198    7  74.1  70.3 1010.5 29.8  1.021 -99.9 -99.99 -9.99
2019/08/22 19:42 EDT    0.94   1.44    5  195    8  74.1  70.3 1010.5 29.9  1.021 -99.9 -99.99 -9.99
2019/08/22 19:48 EDT    0.96   1.50    5  200    6  73.9  70.2 1010.7 29.9  1.021 -99.9 -99.99 -9.99
2019/08/22 19:54 EDT    0.98   1.52    4  209    6  73.6  70.0 1010.8 29.9  1.021 -99.9 -99.99 -9.99
2019/08/22 20:00 EDT    0.99   1.53    6  208    7  73.4  70.0 1010.7 29.9  1.022 -99.9 -99.99 -9.99
2019/08/22 20:06 EDT    1.01   1.58    9  206   10  73.2  70.0 1010.8 29.8  1.021 -99.9 -99.99 -9.99
2019/08/22 20:12 EDT    1.03   1.60    8  212   10  73.6  69.8 1010.9 29.9  1.022 -99.9 -99.99 -9.99
2019/08/22 20:18 EDT    1.05   1.65    7  215   10  73.8  69.8 1011.0 29.9  1.022 -99.9 -99.99 -9.99
2019/08/22 20:24 EDT    1.07   1.62    9  212   10  74.1  69.8 1011.1 29.9  1.022 -99.9 -99.99 -9.99
2019/08/22 20:30 EDT    1.09   1.67    6  205   10  74.3  69.8 1011.1 29.9  1.022 -99.9 -99.99 -9.99
2019/08/22 20:36 EDT    1.11   1.69    6  201    8  74.1  69.8 1011.2 29.8  1.021 -99.9 -99.99 -9.99
2019/08/22 20:42 EDT    1.13   1.66    6  203    6  73.9  69.8 1011.2 29.8  1.021 -99.9 -99.99 -9.99
2019/08/22 20:48 EDT    1.16   1.75    6  209    6  73.8  69.8 1011.2 29.8  1.021 -99.9 -99.99 -9.99
2019/08/22 20:54 EDT    1.18   1.82    4  210    6  73.8  69.8 1011.3 29.9  1.022 -99.9 -99.99 -9.99
2019/08/22 21:00 EDT    1.21   1.78    2  204    5  73.8  69.8 1011.2 29.9  1.022 -99.9 -99.99 -9.99
2019/08/22 21:06 EDT    1.23   1.78    2  168    2  74.1  69.8 1011.2 29.8  1.021 -99.9 -99.99 -9.99
2019/08/22 21:12 EDT    1.26   1.86    2  137    3  74.5  69.8 1011.2 29.8  1.021 -99.9 -99.99 -9.99
2019/08/22 21:18 EDT    1.29   1.84    2  157    2  75.0  69.8 1011.3 29.9  1.022 -99.9 -99.99 -9.99
2019/08/22 21:24 EDT    1.32   1.86    5  180    5  75.0  69.8 1011.3 29.9  1.022 -99.9 -99.99 -9.99
2019/08/22 21:30 EDT    1.35   1.91    5  202    7  75.0  69.8 1011.3 29.9  1.022 -99.9 -99.99 -9.99
2019/08/22 21:36 EDT    1.38   1.93    6  211    6  75.4  69.6 1011.4 29.9  1.022 -99.9 -99.99 -9.99
2019/08/22 21:42 EDT    1.41   1.98    6  205    8  75.0  69.8 1011.4 29.9  1.021 -99.9 -99.99 -9.99
2019/08/22 21:48 EDT    1.45   2.00    5  206    7  74.5  69.8 1011.5 29.9  1.022 -99.9 -99.99 -9.99
2019/08/22 21:54 EDT    1.48   2.06    6  207    8  74.1  69.8 1011.5 29.9  1.022 -99.9 -99.99 -9.99
2019/08/22 22:00 EDT    1.52   2.10    5  189    7  74.1  69.8 1011.6 29.9  1.022 -99.9 -99.99 -9.99
2019/08/22 22:06 EDT    1.56   2.16    7  188    9  73.9  69.8 1011.6 29.9  1.021 -99.9 -99.99 -9.99
2019/08/22 22:12 EDT    1.61   2.13    9  209   10  74.5  69.8 1011.6 29.8  1.021 -99.9 -99.99 -9.99
2019/08/22 22:18 EDT    1.65   2.15    8  212   10  74.1  69.8 1011.7 29.8  1.021 -99.9 -99.99 -9.99
2019/08/22 22:24 EDT    1.69   2.21    7  214    9  74.3  69.6 1011.7 29.9  1.022 -99.9 -99.99 -9.99
2019/08/22 22:30 EDT    1.74   2.19    5  231    7  74.1  69.8 1011.8 29.8  1.021 -99.9 -99.99 -9.99
2019/08/22 22:36 EDT    1.79   2.23    4  242    6  74.5  69.6 1011.7 29.8  1.022 -99.9 -99.99 -9.99
2019/08/22 22:42 EDT    1.84   2.23    2  249    4  74.5  69.6 1011.6 29.8  1.022 -99.9 -99.99 -9.99
2019/08/22 22:48 EDT    1.89   2.29    0  273    3  74.3  69.6 1011.6 29.8  1.022 -99.9 -99.99 -9.99
2019/08/22 22:54 EDT    1.94   2.34    0   74    0  74.1  69.6 1011.6 29.8  1.021 -99.9 -99.99 -9.99
2019/08/22 23:00 EDT    1.99   2.38    1  124    2  73.9  69.6 1011.6 29.8  1.021 -99.9 -99.99 -9.99
2019/08/22 23:06 EDT    2.05   2.52    0   15    1  74.3  69.4 1011.6 29.9  1.022 -99.9 -99.99 -9.99
2019/08/22 23:12 EDT    2.10   2.53    1  349    2  74.7  69.4 1011.6 29.9  1.022 -99.9 -99.99 -9.99
2019/08/22 23:18 EDT    2.15   2.59    0   12    1  74.8  69.4 1011.6 29.9  1.022 -99.9 -99.99 -9.99
2019/08/22 23:24 EDT    2.21   2.64    0  302    2  74.8  69.6 1011.7 29.8  1.022 -99.9 -99.99 -9.99
2019/08/22 23:30 EDT    2.26   2.61    0  167    1  74.8  69.6 1011.7 29.8  1.021 -99.9 -99.99 -9.99
2019/08/22 23:36 EDT    2.32   2.65    2  276    3  75.0  69.6 1011.8 29.9  1.022 -99.9 -99.99 -9.99
2019/08/22 23:42 EDT    2.37   2.77    3  277    4  75.4  69.6 1011.9 29.9  1.022 -99.9 -99.99 -9.99
2019/08/22 23:48 EDT    2.42   2.75    2  205    3  75.4  69.4 1012.0 29.9  1.022 -99.9 -99.99 -9.99
2019/08/22 23:54 EDT    2.47   2.82    5  201    5  74.8  69.6 1012.1 29.8  1.022 -99.9 -99.99 -9.99
2019/08/23 00:00 EDT    2.52   2.96    4  225    6  75.2  69.4 1012.1 29.8  1.022 -99.9 -99.99 -9.99
2019/08/23 00:06 EDT    2.57   2.95    1  248    4  75.0  69.4 1012.1 29.9  1.022 -99.9 -99.99 -9.99
2019/08/23 00:12 EDT    2.62   3.05    5  227    7  74.8  69.4 1012.3 29.8  1.022 -99.9 -99.99 -9.99
2019/08/23 00:18 EDT    2.67   3.14    4  248    7  74.3  69.4 1012.4 29.8  1.022 -99.9 -99.99 -9.99
2019/08/23 00:24 EDT    2.71   3.23   11  248   14  75.9  69.4 1012.5 29.8  1.021 -99.9 -99.99 -9.99
2019/08/23 00:30 EDT    2.75   3.20    9  254   14  75.6  69.4 1012.5 29.8  1.021 -99.9 -99.99 -9.99
2019/08/23 00:36 EDT    2.78   3.20    8  257   11  75.2  69.3 1012.5 29.8  1.022 -99.9 -99.99 -9.99
2019/08/23 00:42 EDT    2.82   3.22    7  256   10  74.8  69.3 1012.5 29.8  1.022 -99.9 -99.99 -9.99
2019/08/23 00:48 EDT    2.85   3.27    7  257    9  74.7  69.3 1012.7 29.8  1.022 -99.9 -99.99 -9.99
2019/08/23 00:54 EDT    2.88   3.34    7  269    8  74.5  69.3 1012.8 29.8  1.022 -99.9 -99.99 -9.99
2019/08/23 01:00 EDT    2.90   3.32    7  256    9  74.3  69.3 1012.9 29.8  1.022 -99.9 -99.99 -9.99
2019/08/23 01:06 EDT    2.92   3.20    7  261   10  74.1  69.1 1012.7 29.8  1.022 -99.9 -99.99 -9.99
2019/08/23 01:12 EDT    2.93   3.27    5  291    8  74.1  69.3 1012.4 29.8  1.022 -99.9 -99.99 -9.99
2019/08/23 01:18 EDT    2.94   3.39    5  294    9  74.1  68.9 1012.4 29.8  1.022 -99.9 -99.99 -9.99
2019/08/23 01:24 EDT    2.95   3.39    4  297    7  73.8  69.1 1012.4 29.8  1.022 -99.9 -99.99 -9.99
2019/08/23 01:30 EDT    2.95   3.39    5  315    7  73.9  69.1 1012.0 29.8  1.022 -99.9 -99.99 -9.99
2019/08/23 01:36 EDT    2.95   3.36    6  319    8  74.1  68.7 1011.8 29.9  1.022 -99.9 -99.99 -9.99
2019/08/23 01:42 EDT    2.94   3.37    4  324    8  73.9  68.9 1011.7 29.8  1.022 -99.9 -99.99 -9.99
2019/08/23 01:48 EDT    2.93   3.27    5  319    8  74.1  68.7 1011.8 29.8  1.022 -99.9 -99.99 -9.99
2019/08/23 01:54 EDT    2.91   3.34    6  319    7  73.9  68.9 1011.8 29.8  1.022 -99.9 -99.99 -9.99
2019/08/23 02:00 EDT    2.89   3.38    4  308    8  73.8  68.9 1011.8 29.8  1.022 -99.9 -99.99 -9.99
2019/08/23 02:06 EDT    2.86   3.30    5  312    6  73.4  68.9 1011.8 29.8  1.022 -99.9 -99.99 -9.99
2019/08/23 02:12 EDT    2.83   3.28    3  325    6  73.4  68.9 1011.7 29.8  1.022 -99.9 -99.99 -9.99
2019/08/23 02:18 EDT    2.80   3.34    4  330    5  73.6  68.9 1011.6 29.8  1.022 -99.9 -99.99 -9.99
2019/08/23 02:24 EDT    2.76   3.38    4  320    6  73.6  69.1 1011.7 29.8  1.022 -99.9 -99.99 -9.99
2019/08/23 02:30 EDT    2.72   3.22    4  320    7  73.4  69.1 1011.7 29.8  1.022 -99.9 -99.99 -9.99
2019/08/23 02:36 EDT    2.67   3.24    6  318    8  73.6  69.1 1011.7 29.8  1.022 -99.9 -99.99 -9.99
2019/08/23 02:42 EDT    2.62   3.14    6  317    9  73.6  69.1 1011.7 29.8  1.022 -99.9 -99.99 -9.99
2019/08/23 02:48 EDT    2.57   3.03    5  329    7  73.6  69.1 1011.7 29.8  1.022 -99.9 -99.99 -9.99
2019/08/23 02:54 EDT    2.51   3.02    5  322    7  73.6  69.1 1011.6 29.8  1.022 -99.9 -99.99 -9.99
2019/08/23 03:00 EDT    2.45   3.01    4  338    8  73.4  69.1 1011.5 29.8  1.022 -99.9 -99.99 -9.99
2019/08/23 03:06 EDT    2.39   2.91    5  324    9  73.8  69.3 1011.6 29.7  1.021 -99.9 -99.99 -9.99
2019/08/23 03:12 EDT    2.32   2.93    5  333   11  73.6  69.3 1011.7 29.8  1.022 -99.9 -99.99 -9.99
2019/08/23 03:18 EDT    2.26   2.88    6  319    9  73.4  69.3 1011.9 29.8  1.022 -99.9 -99.99 -9.99
2019/08/23 03:24 EDT    2.19   2.78    7  312    8  73.2  69.3 1012.2 29.7  1.021 -99.9 -99.99 -9.99
2019/08/23 03:30 EDT    2.12   2.79    6  313    8  73.2  69.3 1012.3 29.8  1.022 -99.9 -99.99 -9.99
2019/08/23 03:36 EDT    2.05   2.70    4  328    8  73.0  69.1 1012.3 29.8  1.022 -99.9 -99.99 -9.99
2019/08/23 03:42 EDT    1.97   2.47    5  339    7  73.0  69.3 1012.2 29.7  1.021 -99.9 -99.99 -9.99
2019/08/23 03:48 EDT    1.90   2.46    5  336   10  73.4  69.3 1012.0 29.7  1.021 -99.9 -99.99 -9.99
2019/08/23 03:54 EDT    1.83   2.46    6  333    9  73.6  69.3 1012.2 29.8  1.022 -99.9 -99.99 -9.99
2019/08/23 04:00 EDT    1.76   2.34    9  349   13  74.1  69.3 1012.2 29.7  1.021 -99.9 -99.99 -9.99
2019/08/23 04:06 EDT    1.68   2.20    9  351   13  73.9  69.3 1012.1 29.8  1.022 -99.9 -99.99 -9.99
2019/08/23 04:12 EDT    1.61   2.17    7  342   12  73.9  69.3 1012.3 29.8  1.022 -99.9 -99.99 -9.99
2019/08/23 04:18 EDT    1.54   2.04    7  340   11  73.8  69.3 1012.3 29.8  1.022 -99.9 -99.99 -9.99
2019/08/23 04:24 EDT    1.47   2.03    8  341   15  73.9  69.3 1012.2 29.8  1.022 -99.9 -99.99 -9.99
2019/08/23 04:30 EDT    1.40   2.03   10  347   13  73.8  69.1 1012.2 29.7  1.021 -99.9 -99.99 -9.99
2019/08/23 04:36 EDT    1.33   1.84    9  332   14  73.6  69.1 1012.4 29.8  1.022 -99.9 -99.99 -9.99
2019/08/23 04:42 EDT    1.26   1.75    7  330   13  73.2  69.3 1012.4 29.7  1.021 -99.9 -99.99 -9.99
2019/08/23 04:48 EDT    1.20   1.72    6  338   11  73.0  68.5 1012.3 29.9  1.022 -99.9 -99.99 -9.99
2019/08/23 04:54 EDT    1.13   1.61    7  334   10  73.0  68.7 1012.5 29.8  1.022 -99.9 -99.99 -9.99
2019/08/23 05:00 EDT    1.07   1.50    7  331   10  73.2  68.9 1012.7 29.8  1.022 -99.9 -99.99 -9.99
2019/08/23 05:06 EDT    1.01   1.47    4  330   10  73.2  68.2 1012.9 29.9  1.022 -99.9 -99.99 -9.99
2019/08/23 05:12 EDT    0.96   1.39    4  331    8  72.5  67.5 1012.9 29.7  1.022 -99.9 -99.99 -9.99
2019/08/23 05:18 EDT    0.90   1.28    6  334    7  72.3  68.2 1012.8 29.8  1.022 -99.9 -99.99 -9.99
2019/08/23 05:24 EDT    0.85   1.26    6  338    9  72.5  68.5 1012.8 29.8  1.022 -99.9 -99.99 -9.99
2019/08/23 05:30 EDT    0.81   1.40    5  345    7  72.5  68.2 1012.8 29.7  1.022 -99.9 -99.99 -9.99
2019/08/23 05:36 EDT    0.76   1.20    8  360   11  72.9  68.2 1013.0 29.8  1.022 -99.9 -99.99 -9.99
2019/08/23 05:42 EDT    0.72   1.14    8  356   12  72.9  67.5 1013.1 29.9  1.022 -99.9 -99.99 -9.99
2019/08/23 05:48 EDT    0.69   1.09    8  353   11  72.9  67.5 1013.2 29.8  1.022 -99.9 -99.99 -9.99
2019/08/23 05:54 EDT    0.65   1.06    6    5    9  72.7  67.1 1013.1 29.9  1.022 -99.9 -99.99 -9.99
2019/08/23 06:00 EDT    0.62   1.16    7    7    9  72.5  66.9 1013.0 30.0  1.022 -99.9 -99.99 -9.99
2019/08/23 06:06 EDT    0.60   0.95    5    5   10  72.3  67.1 1013.3 29.9  1.022 -99.9 -99.99 -9.99
2019/08/23 06:12 EDT    0.58   1.02    6  354   10  72.3  67.1 1013.5 30.0  1.022 -99.9 -99.99 -9.99
2019/08/23 06:18 EDT    0.56   1.05    6    1    9  72.3  67.1 1013.6 29.9  1.022 -99.9 -99.99 -9.99
2019/08/23 06:24 EDT    0.55   0.99    6   10    9  72.3  67.1 1013.6 29.9  1.022 -99.9 -99.99 -9.99
2019/08/23 06:30 EDT    0.54   0.94    7  351   11  72.3  66.7 1013.7 29.9  1.022 -99.9 -99.99 -9.99
2019/08/23 06:36 EDT    0.53   0.88    7  346   11  72.1  66.9 1013.7 30.0  1.022 -99.9 -99.99 -9.99
2019/08/23 06:42 EDT    0.53   1.00    7  353   11  72.1  67.3 1013.8 29.9  1.022 -99.9 -99.99 -9.99
2019/08/23 06:48 EDT    0.53   0.86    6    0   10  72.1  67.8 1013.8 29.8  1.022 -99.9 -99.99 -9.99
2019/08/23 06:54 EDT    0.54   0.95    5  359    8  72.1  67.6 1013.9 29.8  1.022 -99.9 -99.99 -9.99
2019/08/23 07:00 EDT    0.55   0.92    6  355   10  72.1  67.5 1013.8 29.8  1.022 -99.9 -99.99 -9.99
2019/08/23 07:06 EDT    0.56   0.96    6   12   11  72.0  67.8 1014.0 29.8  1.022 -99.9 -99.99 -9.99
2019/08/23 07:12 EDT    0.57   1.10    5  352    9  71.8  68.0 1014.1 29.8  1.022 -99.9 -99.99 -9.99
2019/08/23 07:18 EDT    0.59   0.95    7  354    9  71.6  67.8 1014.1 29.7  1.022 -99.9 -99.99 -9.99
2019/08/23 07:24 EDT    0.61   1.05    5  350    9  71.6  67.8 1014.2 29.9  1.022 -99.9 -99.99 -9.99
2019/08/23 07:30 EDT    0.64   1.03    7  348   11  71.1  67.8 1014.1 29.8  1.022 -99.9 -99.99 -9.99
2019/08/23 07:36 EDT    0.66   1.12    6    7   10  71.1  67.6 1014.1 29.9  1.022 -99.9 -99.99 -9.99
2019/08/23 07:42 EDT    0.69   1.15    4  356    9  70.9  67.1 1014.4 29.8  1.022 -99.9 -99.99 -9.99
2019/08/23 07:48 EDT    0.72   1.15    5    7    7  70.9  67.5 1014.6 29.9  1.022 -99.9 -99.99 -9.99
2019/08/23 07:54 EDT    0.75   1.31    4  342    7  70.3  67.3 1015.0 30.0  1.022 -99.9 -99.99 -9.99
2019/08/23 08:00 EDT    0.78   1.13    4  334    7  69.4  67.8 1015.2 29.9  1.022 -99.9 -99.99 -9.99
2019/08/23 08:06 EDT    0.81   1.23    7  353   10  68.0  67.3 1015.1 30.0  1.022 -99.9 -99.99 -9.99
2019/08/23 08:12 EDT    0.85   1.29    6  332    9  67.6  67.6 1015.2 29.9  1.022 -99.9 -99.99 -9.99
2019/08/23 08:18 EDT    0.89   1.26    4  347    8  67.5  67.6 1015.1 29.9  1.022 -99.9 -99.99 -9.99
2019/08/23 08:24 EDT    0.92   1.38    9  337   10  67.3  67.6 1015.2 29.8  1.022 -99.9 -99.99 -9.99
2019/08/23 08:30 EDT    0.96   1.30    3  340   10  67.3  67.6 1015.4 29.8  1.022 -99.9 -99.99 -9.99
2019/08/23 08:36 EDT    1.00   1.39    2    7    5  67.5  67.1 1015.4 29.9  1.022 -99.9 -99.99 -9.99
2019/08/23 08:42 EDT    1.04   1.49    3  327    4  67.6  67.6 1015.4 29.9  1.022 -99.9 -99.99 -9.99
2019/08/23 08:48 EDT    1.08   1.42    5  342    9  67.3  67.3 1015.4 29.9  1.022 -99.9 -99.99 -9.99
2019/08/23 08:54 EDT    1.12   1.42    6  347    9  67.3  67.5 1015.4 29.9  1.022 -99.9 -99.99 -9.99
2019/08/23 09:00 EDT    1.16   1.47    6  342   10  67.3  66.9 1015.5 30.0  1.022 -99.9 -99.99 -9.99
2019/08/23 09:06 EDT    1.20   1.57    5  337    8  66.9  67.3 1015.6 29.9  1.022 -99.9 -99.99 -9.99
2019/08/23 09:12 EDT    1.24   1.55    6  343    7  66.6  67.1 1015.6 29.9  1.022 -99.9 -99.99 -9.99
2019/08/23 09:18 EDT    1.29   1.60    5  338   10  66.0  67.1 1015.4 29.9  1.022 -99.9 -99.99 -9.99
2019/08/23 09:24 EDT    1.33   1.57    6    4    9  65.7  67.1 1015.3 29.9  1.022 -99.9 -99.99 -9.99
2019/08/23 09:30 EDT    1.38   1.59    6    3    8  65.3  67.1 1015.2 29.9  1.022 -99.9 -99.99 -9.99
2019/08/23 09:36 EDT    1.42   1.73    7  343   10  65.3  66.9 1015.5 30.0  1.022 -99.9 -99.99 -9.99
2019/08/23 09:42 EDT    1.47   1.69    6  359    9  65.5  67.1 1015.6 29.9  1.022 -99.9 -99.99 -9.99
2019/08/23 09:48 EDT    1.51   1.79    4  353    7  65.5  67.1 1015.6 29.9  1.022 -99.9 -99.99 -9.99
2019/08/23 09:54 EDT    1.56   1.89    4    0    6  65.3  67.3 1015.5 29.9  1.022 -99.9 -99.99 -9.99
2019/08/23 10:00 EDT    1.61   1.88    4  336    5  65.5  67.3 1015.6 29.9  1.022 -99.9 -99.99 -9.99
2019/08/23 10:06 EDT    1.66   1.92    4  353    6  65.5  67.3 1015.6 29.9  1.022 -99.9 -99.99 -9.99
2019/08/23 10:12 EDT    1.71   1.95    2  358    4  65.7  67.1 1015.5 29.9  1.022 -99.9 -99.99 -9.99
2019/08/23 10:18 EDT    1.76   2.08    2   18    3  65.7  67.1 1015.5 29.9  1.022 -99.9 -99.99 -9.99
2019/08/23 10:24 EDT    1.82   2.11    3   27    5  65.7  67.1 1015.4 29.9  1.022 -99.9 -99.99 -9.99
2019/08/23 10:30 EDT    1.87   2.20    2  355    3  65.7  67.1 1015.6 29.9  1.022 -99.9 -99.99 -9.99
2019/08/23 10:36 EDT    1.93   2.26    1    7    2  65.7  67.1 1015.5 29.9  1.022 -99.9 -99.99 -9.99
2019/08/23 10:42 EDT    1.98   2.30    2    4    4  65.7  66.9 1015.6 30.0  1.022 -99.9 -99.99 -9.99
2019/08/23 10:48 EDT    2.04   2.42    2   10    3  65.7  66.9 1015.4 29.9  1.022 -99.9 -99.99 -9.99
2019/08/23 10:54 EDT    2.10   2.40    0   49    2  66.2  66.9 1015.4 29.9  1.022 -99.9 -99.99 -9.99
2019/08/23 11:00 EDT    2.16   2.47    0   37    1  66.9  66.9 1015.6 29.9  1.022 -99.9 -99.99 -9.99
2019/08/23 11:06 EDT    2.22   2.55    2  303    3  66.9  67.1 1015.6 29.9  1.022 -99.9 -99.99 -9.99
2019/08/23 11:12 EDT    2.28   2.60    2  250    3  66.7  67.1 1015.5 29.9  1.022 -99.9 -99.99 -9.99
2019/08/23 11:18 EDT    2.34   2.68    0  292    4  67.1  67.1 1015.5 29.9  1.022 -99.9 -99.99 -9.99
2019/08/23 11:24 EDT    2.40   2.74    1  279    2  67.3  67.1 1015.4 29.9  1.022 -99.9 -99.99 -9.99
2019/08/23 11:30 EDT    2.46   2.81    3  251    3  66.6  67.1 1015.3 29.9  1.022 -99.9 -99.99 -9.99
2019/08/23 11:36 EDT    2.52   2.82    3  263    3  66.4  67.1 1015.4 29.9  1.022 -99.9 -99.99 -9.99
2019/08/23 11:42 EDT    2.58   2.89    2  267    3  66.7  67.1 1015.3 29.9  1.022 -99.9 -99.99 -9.99
2019/08/23 11:48 EDT    2.64   2.97    2  239    3  67.3  67.1 1015.1 29.9  1.022 -99.9 -99.99 -9.99
2019/08/23 11:54 EDT    2.70   3.08    2  236    3  67.1  67.1 1015.1 29.9  1.022 -99.9 -99.99 -9.99
2019/08/23 12:00 EDT    2.75   3.09    3  221    4  67.5  67.1 1015.0 29.8  1.022 -99.9 -99.99 -9.99
2019/08/23 12:06 EDT    2.81   3.12    2  194    4  68.0  67.1 1014.7 29.9  1.022 -99.9 -99.99 -9.99
2019/08/23 12:12 EDT    2.87   3.27    2  231    4  67.6  67.1 1014.7 29.9  1.022 -99.9 -99.99 -9.99
2019/08/23 12:18 EDT    2.92   3.29    2  266    2  68.0  67.1 1014.7 29.9  1.022 -99.9 -99.99 -9.99
2019/08/23 12:24 EDT    2.97   3.25    3  314    3  67.8  67.1 1014.7 29.9  1.022 -99.9 -99.99 -9.99
2019/08/23 12:30 EDT    3.02   3.31    3  268    4  67.8  67.1 1014.7 29.9  1.022 -99.9 -99.99 -9.99
2019/08/23 12:36 EDT    3.07   3.34    1  297    4  68.0  66.9 1014.6 29.9  1.022 -99.9 -99.99 -9.99
2019/08/23 12:42 EDT    3.12   3.40    1  253    3  68.4  66.9 1014.5 29.9  1.022 -99.9 -99.99 -9.99
2019/08/23 12:48 EDT    3.16   3.51    2  278    3  68.2  66.9 1014.4 29.9  1.022 -99.9 -99.99 -9.99
2019/08/23 12:54 EDT    3.20   3.55    3  283    4  68.5  67.1 1014.5 29.9  1.022 -99.9 -99.99 -9.99
2019/08/23 13:00 EDT    3.24   3.57    2  230    3  69.3  67.1 1014.5 29.9  1.022 -99.9 -99.99 -9.99
2019/08/23 13:06 EDT    3.27   3.65    2  219    3  69.4  67.1 1014.5 29.9  1.022 -99.9 -99.99 -9.99
2019/08/23 13:12 EDT    3.30   3.68    3  268    3  69.4  67.1 1014.5 30.0  1.022 -99.9 -99.99 -9.99
2019/08/23 13:18 EDT    3.33   3.62    1  294    3  69.4  67.1 1014.5 30.0  1.022 -99.9 -99.99 -9.99
2019/08/23 13:24 EDT    3.35   3.69    1  221    2  69.8  67.3 1014.3 29.9  1.022 -99.9 -99.99 -9.99
2019/08/23 13:30 EDT    3.37   3.79    2  194    3  70.3  67.3 1014.2 29.9  1.022 -99.9 -99.99 -9.99
2019/08/23 13:36 EDT    3.38   3.73    1  214    3  70.5  67.3 1014.3 30.0  1.022 -99.9 -99.99 -9.99
2019/08/23 13:42 EDT    3.39   3.80    2  220    3  70.2  67.3 1014.5 30.0  1.022 -99.9 -99.99 -9.99
2019/08/23 13:48 EDT    3.39   3.88    2  235    3  70.3  67.3 1014.4 30.0  1.022 -99.9 -99.99 -9.99
2019/08/23 13:54 EDT    3.39   3.80    2  230    3  70.3  67.1 1014.3 30.0  1.022 -99.9 -99.99 -9.99
2019/08/23 14:00 EDT    3.39   3.86    2  241    3  70.3  67.3 1014.4 30.0  1.022 -99.9 -99.99 -9.99
2019/08/23 14:06 EDT    3.38   3.82    1  199    2  71.2  67.3 1014.5 30.0  1.022 -99.9 -99.99 -9.99
2019/08/23 14:12 EDT    3.37   3.83    1  245    2  71.2  67.5 1014.5 30.0  1.022 -99.9 -99.99 -9.99
2019/08/23 14:18 EDT    3.35   3.86    2  222    3  71.6  67.5 1014.4 30.0  1.022 -99.9 -99.99 -9.99
2019/08/23 14:24 EDT    3.33   3.87    2  234    3  71.4  67.5 1014.6 30.0  1.022 -99.9 -99.99 -9.99
2019/08/23 14:30 EDT    3.30   3.81    1  208    3  72.0  67.5 1014.4 30.0  1.022 -99.9 -99.99 -9.99
2019/08/23 14:36 EDT    3.27   3.79    2  208    3  72.1  67.5 1014.3 29.9  1.022 -99.9 -99.99 -9.99
2019/08/23 14:42 EDT    3.24   3.76    2  206    3  72.3  67.8 1014.3 29.9  1.022 -99.9 -99.99 -9.99
2019/08/23 14:48 EDT    3.20   3.67    3  185    4  72.7  67.3 1014.2 30.0  1.022 -99.9 -99.99 -9.99
2019/08/23 14:54 EDT    3.16   3.70    3  188    4  73.0  67.5 1014.1 30.0  1.022 -99.9 -99.99 -9.99
2019/08/23 15:00 EDT    3.11   3.66    2  232    3  72.0  67.1 1014.5 30.0  1.022 -99.9 -99.99 -9.99
2019/08/23 15:06 EDT    3.06   3.68    2  203    2  73.4  67.1 1014.4 30.0  1.022 -99.9 -99.99 -9.99
2019/08/23 15:12 EDT    3.01   3.63    2  193    3  73.8  67.1 1014.5 30.0  1.022 -99.9 -99.99 -9.99
2019/08/23 15:18 EDT    2.96   3.65    3  171    4  73.9  66.4 1014.4 30.1  1.022 -99.9 -99.99 -9.99
2019/08/23 15:24 EDT    2.90   3.59    3  196    4  73.8  66.9 1014.4 30.0  1.022 -99.9 -99.99 -9.99
2019/08/23 15:30 EDT    2.84   3.48    3  203    4  72.9  67.3 1014.7 29.9  1.022 -99.9 -99.99 -9.99
2019/08/23 15:36 EDT    2.78   3.42    2  180    3  73.4  66.9 1014.5 29.9  1.022 -99.9 -99.99 -9.99
2019/08/23 15:42 EDT    2.72   3.33    2  211    2  73.4  67.3 1014.6 30.0  1.022 -99.9 -99.99 -9.99
2019/08/23 15:48 EDT    2.66   3.32    2  175    2  73.6  66.7 1014.4 30.0  1.022 -99.9 -99.99 -9.99
2019/08/23 15:54 EDT    2.59   3.28    2  212    2  73.4  66.4 1014.7 30.1  1.022 -99.9 -99.99 -9.99
2019/08/23 16:00 EDT    2.53   3.20    3  220    4  72.7  67.5 1014.8 29.9  1.022 -99.9 -99.99 -9.99
2019/08/23 16:06 EDT    2.46   3.16    4  200    5  72.1  67.5 1014.8 29.9  1.022 -99.9 -99.99 -9.99
2019/08/23 16:12 EDT    2.39   3.07    4  195    4  72.5  67.6 1014.6 29.9  1.022 -99.9 -99.99 -9.99
2019/08/23 16:18 EDT    2.32   2.88    4  202    4  72.5  67.8 1014.6 29.8  1.022 -99.9 -99.99 -9.99
2019/08/23 16:24 EDT    2.26   2.87    5  233    5  71.8  67.8 1014.8 29.8  1.022 -99.9 -99.99 -9.99
2019/08/23 16:30 EDT    2.19   2.79    5  213    6  72.1  67.6 1014.7 29.9  1.022 -99.9 -99.99 -9.99
2019/08/23 16:36 EDT    2.12   2.70    6  216    6  71.6  67.6 1014.8 29.9  1.022 -99.9 -99.99 -9.99
2019/08/23 16:42 EDT    2.05   2.62    5  209    7  71.4  67.6 1014.8 29.9  1.022 -99.9 -99.99 -9.99
2019/08/23 16:48 EDT    1.99   2.60    4  199    5  71.8  67.6 1014.7 29.9  1.022 -99.9 -99.99 -9.99
2019/08/23 16:54 EDT    1.92   2.47    4  172    4  72.3  67.5 1014.3 29.8  1.022 -99.9 -99.99 -9.99
2019/08/23 17:00 EDT    1.86   2.36    3  201    4  72.9  67.5 1014.5 29.9  1.022 -99.9 -99.99 -9.99
2019/08/23 17:06 EDT    1.80   2.29    4  185    4  72.9  67.5 1014.6 29.9  1.022 -99.9 -99.99 -9.99
2019/08/23 17:12 EDT    1.73   2.13    3  206    4  72.7  67.5 1014.7 29.9  1.022 -99.9 -99.99 -9.99
2019/08/23 17:18 EDT    1.67   2.09    2  191    4  73.0  67.6 1014.6 29.8  1.022 -99.9 -99.99 -9.99
2019/08/23 17:24 EDT    1.61   2.04    2  181    3  73.2  67.6 1014.6 29.9  1.022 -99.9 -99.99 -9.99
2019/08/23 17:30 EDT    1.56   1.93    2  173    3  73.4  67.6 1014.6 29.9  1.022 -99.9 -99.99 -9.99
2019/08/23 17:36 EDT    1.50   1.91    2  164    2  73.4  67.8 1014.5 29.8  1.022 -99.9 -99.99 -9.99
2019/08/23 17:42 EDT    1.45   1.78    3  175    3  73.2  67.8 1014.6 29.8  1.022 -99.9 -99.99 -9.99
2019/08/23 17:48 EDT    1.40   1.77    1  196    3  73.4  67.6 1014.5 29.9  1.022 -99.9 -99.99 -9.99
2019/08/23 17:54 EDT    1.35   1.69    3  302    5  73.6  67.6 1014.4 29.8  1.022 -99.9 -99.99 -9.99
2019/08/23 18:00 EDT    1.30   1.59    1  351    4  73.8  67.6 1014.3 29.9  1.022 -99.9 -99.99 -9.99
2019/08/23 18:06 EDT    1.25   1.60    3  317    2  73.6  67.6 1014.3 29.8  1.022 -99.9 -99.99 -9.99
2019/08/23 18:12 EDT    1.21   1.62    3  299    5  73.9  67.6 1014.5 29.8  1.022 -99.9 -99.99 -9.99
2019/08/23 18:18 EDT    1.17   1.51    3  297    4  73.8  67.5 1014.4 29.8  1.022 -99.9 -99.99 -9.99
2019/08/23 18:24 EDT    1.14   1.51    3  292    5  73.8  67.5 1014.4 29.8  1.022 -99.9 -99.99 -9.99
2019/08/23 18:30 EDT    1.10   1.46    4  287    5  73.6  67.5 1014.4 29.9  1.022 -99.9 -99.99 -9.99
2019/08/23 18:36 EDT    1.07   1.39    4  278    5  73.6  67.5 1014.6 29.8  1.022 -99.9 -99.99 -9.99
2019/08/23 18:42 EDT    1.04   1.40    5  278    7  73.4  67.5 1014.8 29.9  1.022 -99.9 -99.99 -9.99
2019/08/23 18:48 EDT    1.02   1.38    5  281    6  73.2  67.5 1014.7 29.9  1.022 -99.9 -99.99 -9.99
2019/08/23 18:54 EDT    1.00   1.30    4  289    6  73.0  67.3 1014.6 29.9  1.022 -99.9 -99.99 -9.99
2019/08/23 19:00 EDT    0.98   1.34    5  293    8  73.2  67.3 1014.8 29.9  1.022 -99.9 -99.99 -9.99
2019/08/23 19:06 EDT    0.96   1.38    7  310    7  73.0  67.3 1014.8 29.9  1.022 -99.9 -99.99 -9.99
2019/08/23 19:12 EDT    0.94   1.33    8  310    9  72.9  67.1 1014.9 29.9  1.022 -99.9 -99.99 -9.99
2019/08/23 19:18 EDT    0.93   1.36    5  317   10  72.7  67.1 1014.7 29.9  1.022 -99.9 -99.99 -9.99
2019/08/23 19:24 EDT    0.92   1.37    2    9    7  72.7  67.1 1014.3 30.0  1.022 -99.9 -99.99 -9.99
2019/08/23 19:30 EDT    0.92   1.30    5  314    6  72.9  67.1 1014.8 29.9  1.022 -99.9 -99.99 -9.99
2019/08/23 19:36 EDT    0.91   1.39    6  318    7  72.9  66.9 1015.0 30.0  1.022 -99.9 -99.99 -9.99
2019/08/23 19:42 EDT    0.91   1.33    5  320    9  72.7  67.1 1015.0 30.0  1.022 -99.9 -99.99 -9.99
2019/08/23 19:48 EDT    0.91   1.30    6  340    8  72.9  66.9 1014.8 29.9  1.022 -99.9 -99.99 -9.99
2019/08/23 19:54 EDT    0.91   1.34    3   66    9  72.7  66.9 1014.1 29.7  1.022 -99.9 -99.99 -9.99
2019/08/23 20:00 EDT    0.91   1.34    4  340    5  72.7  67.1 1014.7 29.8  1.022 -99.9 -99.99 -9.99
2019/08/23 20:06 EDT    0.91   1.39    3  336    4  72.9  66.9 1015.0 29.9  1.022 -99.9 -99.99 -9.99
2019/08/23 20:12 EDT    0.92   1.36    7  328    9  73.2  66.7 1015.3 30.0  1.022 -99.9 -99.99 -9.99
2019/08/23 20:18 EDT    0.92   1.35    5  340   10  73.0  66.9 1015.4 29.9  1.022 -99.9 -99.99 -9.99
2019/08/23 20:24 EDT    0.93   1.28    5  341    9  72.7  66.9 1015.4 29.9  1.022 -99.9 -99.99 -9.99
2019/08/23 20:30 EDT    0.94   1.30    4   23    6  72.7  66.9 1015.1 29.9  1.022 -99.9 -99.99 -9.99
2019/08/23 20:36 EDT    0.95   1.36    4  342    5  72.7  67.1 1015.3 29.8  1.022 -99.9 -99.99 -9.99
2019/08/23 20:42 EDT    0.95   1.33    5  331    6  72.7  66.9 1015.6 29.8  1.022 -99.9 -99.99 -9.99
2019/08/23 20:48 EDT    0.96   1.42    4  335    7  72.7  66.9 1015.7 29.9  1.022 -99.9 -99.99 -9.99
2019/08/23 20:54 EDT    0.98   1.40    4  339    5  72.5  66.9 1015.6 29.8  1.022 -99.9 -99.99 -9.99
2019/08/23 21:00 EDT    0.99   1.37    4  353    5  72.3  66.9 1015.5 29.8  1.022 -99.9 -99.99 -9.99
2019/08/23 21:06 EDT    1.00   1.48    3   13    4  72.1  66.9 1015.3 29.8  1.022 -99.9 -99.99 -9.99
2019/08/23 21:12 EDT    1.01   1.40    3    0    4  72.1  67.1 1015.3 29.7  1.022 -99.9 -99.99 -9.99
2019/08/23 21:18 EDT    1.03   1.35    3  349    5  72.1  67.1 1015.3 29.8  1.022 -99.9 -99.99 -9.99
2019/08/23 21:24 EDT    1.04   1.51    3  353    4  72.0  66.9 1015.3 29.8  1.022 -99.9 -99.99 -9.99
2019/08/23 21:30 EDT    1.06   1.58    3  332    5  72.0  67.1 1015.4 29.8  1.022 -99.9 -99.99 -9.99
2019/08/23 21:36 EDT    1.08   1.54    3  345    5  72.1  67.1 1015.3 29.8  1.022 -99.9 -99.99 -9.99
2019/08/23 21:42 EDT    1.09   1.64    4  333    5  72.0  66.9 1015.5 29.8  1.022 -99.9 -99.99 -9.99
2019/08/23 21:48 EDT    1.11   1.51    4  315    5  71.8  67.1 1015.5 29.8  1.022 -99.9 -99.99 -9.99
2019/08/23 21:54 EDT    1.13   1.53    3  330    5  71.6  67.1 1015.4 29.9  1.022 -99.9 -99.99 -9.99
2019/08/23 22:00 EDT    1.16   1.63    4  329    4  71.4  67.1 1015.6 29.9  1.022 -99.9 -99.99 -9.99
2019/08/23 22:06 EDT    1.18   1.57    4  344    6  71.2  67.1 1015.6 29.7  1.022 -99.9 -99.99 -9.99
2019/08/23 22:12 EDT    1.20   1.62    4  325    6  71.2  67.1 1015.6 29.7  1.022 -99.9 -99.99 -9.99
2019/08/23 22:18 EDT    1.23   1.69    6  336    9  71.1  67.1 1015.6 29.9  1.022 -99.9 -99.99 -9.99
2019/08/23 22:24 EDT    1.26   1.75    5  334    8  71.2  67.1 1015.7 29.9  1.022 -99.9 -99.99 -9.99
2019/08/23 22:30 EDT    1.29   1.75    7    3    9  71.6  67.1 1015.8 29.9  1.022 -99.9 -99.99 -9.99
2019/08/23 22:36 EDT    1.32   1.78    7    7   11  72.1  67.1 1015.9 29.8  1.022 -99.9 -99.99 -9.99
2019/08/23 22:42 EDT    1.36   1.76    9    5   12  71.8  66.9 1016.0 29.9  1.022 -99.9 -99.99 -9.99
2019/08/23 22:48 EDT    1.40   1.88    9    8   14  71.8  66.9 1016.0 29.9  1.022 -99.9 -99.99 -9.99
2019/08/23 22:54 EDT    1.43   1.99    8    6   13  71.6  66.9 1016.1 29.8  1.022 -99.9 -99.99 -9.99
2019/08/23 23:00 EDT    1.48   1.79    8   14   15  71.6  66.9 1016.2 29.7  1.022 -99.9 -99.99 -9.99
2019/08/23 23:06 EDT    1.52   1.89    7   17   14  71.2  66.9 1016.4 29.6  1.022 -99.9 -99.99 -9.99
2019/08/23 23:12 EDT    1.56   2.08    6   17   13  70.9  66.9 1016.5 29.7  1.022 -99.9 -99.99 -9.99
2019/08/23 23:18 EDT    1.61   1.94    6   20    8  70.5  66.9 1016.6 29.8  1.022 -99.9 -99.99 -9.99
2019/08/23 23:24 EDT    1.66   1.96    7   10   10  70.2  66.9 1016.8 29.8  1.022 -99.9 -99.99 -9.99
2019/08/23 23:30 EDT    1.71   2.06    7   16   10  70.0  66.7 1016.8 29.8  1.022 -99.9 -99.99 -9.99
2019/08/23 23:36 EDT    1.76   2.19    6   23   10  69.8  66.7 1016.8 29.8  1.022 -99.9 -99.99 -9.99
2019/08/23 23:42 EDT    1.81   2.25    6   18   10  69.6  66.7 1017.0 29.8  1.022 -99.9 -99.99 -9.99
2019/08/23 23:48 EDT    1.87   2.30    7   11   11  69.6  66.7 1017.1 29.9  1.022 -99.9 -99.99 -9.99
2019/08/23 23:54 EDT    1.93   2.25    6   12    9  69.4  66.7 1017.1 29.9  1.022 -99.9 -99.99 -9.99
2019/08/24 00:00 EDT    1.98   2.26    5   18   10  69.4  66.7 1017.1 29.8  1.022 -99.9 -99.99 -9.99
2019/08/24 00:06 EDT    2.04   2.41    7   11   10  69.4  66.7 1017.2 29.8  1.022 -99.9 -99.99 -9.99
2019/08/24 00:12 EDT    2.10   2.54    6   11    9  69.3  66.6 1017.2 29.8  1.022 -99.9 -99.99 -9.99
2019/08/24 00:18 EDT    2.16   2.52    7   12    8  69.3  66.6 1017.2 29.9  1.022 -99.9 -99.99 -9.99
2019/08/24 00:24 EDT    2.21   2.54    9    9   14  69.4  66.6 1017.3 29.9  1.022 -99.9 -99.99 -9.99
2019/08/24 00:30 EDT    2.27   2.53    8   10   13  69.3  66.6 1017.3 29.8  1.022 -99.9 -99.99 -9.99
2019/08/24 00:36 EDT    2.33   2.61    7   10    9  69.1  66.6 1017.3 29.8  1.022 -99.9 -99.99 -9.99
2019/08/24 00:42 EDT    2.38   2.79    8   10   11  69.1  66.6 1017.4 29.7  1.022 -99.9 -99.99 -9.99
2019/08/24 00:48 EDT    2.44   2.71    8   10   12  68.7  66.6 1017.4 29.9  1.022 -99.9 -99.99 -9.99
2019/08/24 00:54 EDT    2.49   2.74   10    9   13  68.7  66.6 1017.4 29.9  1.022 -99.9 -99.99 -9.99
2019/08/24 01:00 EDT    2.55   2.87    7    5   13  68.5  66.6 1017.4 29.9  1.022 -99.9 -99.99 -9.99
2019/08/24 01:06 EDT    2.59   2.85   10   10   13  68.7  66.6 1017.4 29.9  1.022 -99.9 -99.99 -9.99
2019/08/24 01:12 EDT    2.64   2.91   10    3   16  68.7  66.7 1017.5 29.8  1.022 -99.9 -99.99 -9.99
2019/08/24 01:18 EDT    2.69   2.97   14    5   16  68.7  66.7 1017.5 29.8  1.022 -99.9 -99.99 -9.99
2019/08/24 01:24 EDT    2.73   3.01   11    5   15  68.5  66.7 1017.6 29.8  1.022 -99.9 -99.99 -9.99
2019/08/24 01:30 EDT    2.77   3.04   12    3   17  68.5  66.7 1017.6 29.8  1.022 -99.9 -99.99 -9.99
2019/08/24 01:36 EDT    2.80   3.11   10    8   16  68.5  66.7 1017.6 29.7  1.022 -99.9 -99.99 -9.99
2019/08/24 01:42 EDT    2.83   3.14    8    7   14  68.4  66.7 1017.6 29.6  1.022 -99.9 -99.99 -9.99
2019/08/24 01:48 EDT    2.86   3.12   11    7   15  68.0  66.7 1017.6 29.7  1.022 -99.9 -99.99 -9.99
2019/08/24 01:54 EDT    2.88   3.21   11    6   16  67.8  66.7 1017.5 29.8  1.022 -99.9 -99.99 -9.99
2019/08/24 02:00 EDT    2.90   3.15   10    8   14  67.8  66.7 1017.6 29.7  1.022 -99.9 -99.99 -9.99
2019/08/24 02:06 EDT    2.91   3.10   12   10   14  67.8  66.7 1017.6 29.8  1.022 -99.9 -99.99 -9.99
2019/08/24 02:12 EDT    2.92   3.22   10   11   15  67.6  66.7 1017.5 29.8  1.022 -99.9 -99.99 -9.99
2019/08/24 02:18 EDT    2.93   3.23   12    9   16  67.6  66.7 1017.6 29.9  1.022 -99.9 -99.99 -9.99
2019/08/24 02:24 EDT    2.93   3.18   11    8   16  67.5  66.6 1017.6 30.0  1.022 -99.9 -99.99 -9.99
2019/08/24 02:30 EDT    2.93   3.18    5   15   13  67.3  66.6 1017.6 30.0  1.022 -99.9 -99.99 -9.99
2019/08/24 02:36 EDT    2.92   3.14    7   10   14  67.1  66.6 1017.7 -9.9 -9.999 -99.9 -99.99 -9.99
2019/08/24 02:42 EDT    2.90   3.15    9    7   11  67.1  66.6 1017.6 -9.9 -9.999 -99.9 -99.99 -9.99
2019/08/24 02:48 EDT    2.88   3.24   10    7   12  66.9  66.6 1017.7 30.0  1.022 -99.9 -99.99 -9.99
2019/08/24 02:54 EDT    2.86   3.18    8    9   13  66.7  66.6 1017.7 29.9  1.022 -99.9 -99.99 -9.99
2019/08/24 03:00 EDT    2.83   3.08    9   10   12  66.6  66.6 1017.7 29.8  1.022 -99.9 -99.99 -9.99
2019/08/24 03:06 EDT    2.80   3.13    9  359   14  66.4  66.6 1017.7 -9.9 -9.999 -99.9 -99.99 -9.99
2019/08/24 03:12 EDT    2.76   3.16   10    5   15  66.2  66.6 1017.7 29.9  1.022 -99.9 -99.99 -9.99
2019/08/24 03:18 EDT    2.72   3.05   10    4   16  66.0  66.6 1017.7 30.1  1.022 -99.9 -99.99 -9.99
2019/08/24 03:24 EDT    2.68   2.95   10    4   15  66.0  66.6 1017.7 30.0  1.022 -99.9 -99.99 -9.99
2019/08/24 03:30 EDT    2.63   2.96    8    5   15  66.0  66.4 1017.8 30.1  1.022 -99.9 -99.99 -9.99
2019/08/24 03:36 EDT    2.58   2.90   11    6   14  66.0  66.4 1017.9 30.1  1.022 -99.9 -99.99 -9.99
2019/08/24 03:42 EDT    2.53   2.90   11    5   14  65.8  66.2 1017.9 29.9  1.022 -99.9 -99.99 -9.99
2019/08/24 03:48 EDT    2.47   2.86   10    2   18  65.7  66.4 1018.0 30.2  1.022 -99.9 -99.99 -9.99
2019/08/24 03:54 EDT    2.41   2.78   14   10   17  65.7  66.4 1018.0 30.1  1.022 -99.9 -99.99 -9.99
2019/08/24 04:00 EDT    2.35   2.75   11    8   19  65.7  66.4 1018.0 30.1  1.022 -99.9 -99.99 -9.99
2019/08/24 04:06 EDT    2.29   2.66   11    5   14  65.5  66.4 1018.0 30.1  1.022 -99.9 -99.99 -9.99
2019/08/24 04:12 EDT    2.23   2.59   11   11   15  65.5  66.4 1018.0 30.1  1.022 -99.9 -99.99 -9.99
2019/08/24 04:18 EDT    2.16   2.54   10   10   16  65.3  66.4 1018.1 30.2  1.022 -99.9 -99.99 -9.99
2019/08/24 04:24 EDT    2.09   2.47   11    7   14  65.3  66.4 1018.2 30.2  1.022 -99.9 -99.99 -9.99
2019/08/24 04:30 EDT    2.02   2.49   11    6   16  65.1  66.2 1018.2 30.3  1.022 -99.9 -99.99 -9.99
2019/08/24 04:36 EDT    1.95   2.35   11    9   16  65.1  66.2 1018.4 30.3  1.022 -99.9 -99.99 -9.99
2019/08/24 04:42 EDT    1.89   2.31   11    6   16  65.1  66.2 1018.4 30.2  1.022 -99.9 -99.99 -9.99
2019/08/24 04:48 EDT    1.82   2.30   10    8   15  64.9  65.7 1018.5 30.4  1.023 -99.9 -99.99 -9.99
2019/08/24 04:54 EDT    1.75   2.26   10    6   16  64.9  65.7 1018.5 30.3  1.022 -99.9 -99.99 -9.99
2019/08/24 05:00 EDT    1.68   2.07   11    9   15  64.8  65.8 1018.6 30.4  1.022 -99.9 -99.99 -9.99
2019/08/24 05:06 EDT    1.61   2.01    9  359   13  64.6  66.0 1018.6 30.3  1.022 -99.9 -99.99 -9.99
2019/08/24 05:12 EDT    1.54   2.03    8    6   13  64.8  66.0 1018.7 30.3  1.022 -99.9 -99.99 -9.99
2019/08/24 05:18 EDT    1.47   1.92    9    7   14  64.8  66.0 1018.7 30.3  1.022 -99.9 -99.99 -9.99
2019/08/24 05:24 EDT    1.40   1.85    9    6   12  64.8  66.0 1018.7 30.3  1.022 -99.9 -99.99 -9.99
2019/08/24 05:30 EDT    1.34   1.74   11   10   13  64.6  66.0 1018.8 30.3  1.022 -99.9 -99.99 -9.99
2019/08/24 05:36 EDT    1.28   1.65    9    3   15  64.6  66.0 1018.7 30.3  1.022 -99.9 -99.99 -9.99
2019/08/24 05:42 EDT    1.21 -99.99 -999 -999 -999 -99.9 -99.9 -999.9 -9.9 -9.999 -99.9 -99.99 -9.99
2019/08/24 05:48 EDT    1.15 -99.99 -999 -999 -999 -99.9 -99.9 -999.9 -9.9 -9.999 -99.9 -99.99 -9.99

Revised: 08/08/2018
NOAA / National Ocean Service
Web site owner: Center for Operational Oceanographic Products and Services